<?xml version="1.0" encoding="UTF-8" standalone="no" ?>
<gpx xmlns="http://www.topografix.com/GPX/1/1" xmlns:xsi="http://www.w3.org/2001/XMLSchema-instance" xsi:schemaLocation="http://www.topografix.com/GPX/1/1 http://www.topografix.com/GPX/1/1/gpx.xsd" version="1.1" creator="VisuGPX - https://www.visugpx.com">
  <metadata>
    <name>83-V-le Muy</name>
    <desc><![CDATA[83-V-Le Muy : Endre sud  2019-09-27]]></desc>
  </metadata>
  <trk>
    <name><![CDATA[Muy Endre sud  2019-09-27-01]]></name>
    <trkseg>
      <trkpt lat="43.50425" lon="6.59041">
        <ele>36.7</ele>
        <time>2019-09-27T12:13:24.000Z</time>
      </trkpt>
      <trkpt lat="43.50424" lon="6.59042">
        <ele>36.7</ele>
        <time>2019-09-27T12:13:25.000Z</time>
      </trkpt>
      <trkpt lat="43.50422" lon="6.59054">
        <ele>36.4</ele>
        <time>2019-09-27T12:13:34.000Z</time>
      </trkpt>
      <trkpt lat="43.50415" lon="6.59063">
        <ele>36</ele>
        <time>2019-09-27T12:17:39.000Z</time>
      </trkpt>
      <trkpt lat="43.50406" lon="6.59067">
        <ele>36.6</ele>
        <time>2019-09-27T12:17:47.000Z</time>
      </trkpt>
      <trkpt lat="43.50397" lon="6.5907">
        <ele>36.7</ele>
        <time>2019-09-27T12:17:57.000Z</time>
      </trkpt>
      <trkpt lat="43.50388" lon="6.59075">
        <ele>37.7</ele>
        <time>2019-09-27T12:18:9.000Z</time>
      </trkpt>
      <trkpt lat="43.50379" lon="6.59081">
        <ele>39.2</ele>
        <time>2019-09-27T12:18:23.000Z</time>
      </trkpt>
      <trkpt lat="43.5037" lon="6.59086">
        <ele>40.3</ele>
        <time>2019-09-27T12:18:37.000Z</time>
      </trkpt>
      <trkpt lat="43.50361" lon="6.59089">
        <ele>41.1</ele>
        <time>2019-09-27T12:18:45.000Z</time>
      </trkpt>
      <trkpt lat="43.50357" lon="6.591">
        <ele>41.6</ele>
        <time>2019-09-27T12:19:12.000Z</time>
      </trkpt>
      <trkpt lat="43.50355" lon="6.59113">
        <ele>41.8</ele>
        <time>2019-09-27T12:19:20.000Z</time>
      </trkpt>
      <trkpt lat="43.50347" lon="6.59119">
        <ele>42.3</ele>
        <time>2019-09-27T12:19:37.000Z</time>
      </trkpt>
      <trkpt lat="43.50338" lon="6.59119">
        <ele>42.5</ele>
        <time>2019-09-27T12:19:47.000Z</time>
      </trkpt>
      <trkpt lat="43.50328" lon="6.5912">
        <ele>42.9</ele>
        <time>2019-09-27T12:19:57.000Z</time>
      </trkpt>
      <trkpt lat="43.50318" lon="6.59121">
        <ele>42.3</ele>
        <time>2019-09-27T12:20:5.000Z</time>
      </trkpt>
      <trkpt lat="43.50309" lon="6.59124">
        <ele>41.5</ele>
        <time>2019-09-27T12:20:14.000Z</time>
      </trkpt>
      <trkpt lat="43.50299" lon="6.59123">
        <ele>40.6</ele>
        <time>2019-09-27T12:20:24.000Z</time>
      </trkpt>
      <trkpt lat="43.5029" lon="6.59122">
        <ele>39.5</ele>
        <time>2019-09-27T12:20:32.000Z</time>
      </trkpt>
      <trkpt lat="43.5028" lon="6.59118">
        <ele>38.5</ele>
        <time>2019-09-27T12:20:41.000Z</time>
      </trkpt>
      <trkpt lat="43.50271" lon="6.59114">
        <ele>38.3</ele>
        <time>2019-09-27T12:20:49.000Z</time>
      </trkpt>
      <trkpt lat="43.50263" lon="6.59111">
        <ele>37.8</ele>
        <time>2019-09-27T12:20:57.000Z</time>
      </trkpt>
      <trkpt lat="43.50253" lon="6.59111">
        <ele>37.4</ele>
        <time>2019-09-27T12:21:5.000Z</time>
      </trkpt>
      <trkpt lat="43.50244" lon="6.59111">
        <ele>37.7</ele>
        <time>2019-09-27T12:21:14.000Z</time>
      </trkpt>
      <trkpt lat="43.50234" lon="6.59111">
        <ele>37.6</ele>
        <time>2019-09-27T12:21:24.000Z</time>
      </trkpt>
      <trkpt lat="43.50224" lon="6.5911">
        <ele>37.8</ele>
        <time>2019-09-27T12:21:35.000Z</time>
      </trkpt>
      <trkpt lat="43.50214" lon="6.59108">
        <ele>37.4</ele>
        <time>2019-09-27T12:21:45.000Z</time>
      </trkpt>
      <trkpt lat="43.50205" lon="6.59106">
        <ele>37.3</ele>
        <time>2019-09-27T12:21:54.000Z</time>
      </trkpt>
      <trkpt lat="43.50195" lon="6.59105">
        <ele>37.6</ele>
        <time>2019-09-27T12:22:3.000Z</time>
      </trkpt>
      <trkpt lat="43.50186" lon="6.59103">
        <ele>37.4</ele>
        <time>2019-09-27T12:22:12.000Z</time>
      </trkpt>
      <trkpt lat="43.50176" lon="6.59101">
        <ele>37.4</ele>
        <time>2019-09-27T12:22:22.000Z</time>
      </trkpt>
      <trkpt lat="43.50167" lon="6.591">
        <ele>37.2</ele>
        <time>2019-09-27T12:22:32.000Z</time>
      </trkpt>
      <trkpt lat="43.50157" lon="6.59102">
        <ele>37.3</ele>
        <time>2019-09-27T12:22:41.000Z</time>
      </trkpt>
      <trkpt lat="43.50147" lon="6.59103">
        <ele>37.3</ele>
        <time>2019-09-27T12:22:50.000Z</time>
      </trkpt>
      <trkpt lat="43.50138" lon="6.59106">
        <ele>37.1</ele>
        <time>2019-09-27T12:22:58.000Z</time>
      </trkpt>
      <trkpt lat="43.50128" lon="6.59106">
        <ele>37.1</ele>
        <time>2019-09-27T12:23:7.000Z</time>
      </trkpt>
      <trkpt lat="43.50119" lon="6.59106">
        <ele>36.9</ele>
        <time>2019-09-27T12:23:15.000Z</time>
      </trkpt>
      <trkpt lat="43.50108" lon="6.59107">
        <ele>36.8</ele>
        <time>2019-09-27T12:23:25.000Z</time>
      </trkpt>
      <trkpt lat="43.50099" lon="6.59106">
        <ele>36.9</ele>
        <time>2019-09-27T12:23:35.000Z</time>
      </trkpt>
      <trkpt lat="43.50093" lon="6.59117">
        <ele>37.6</ele>
        <time>2019-09-27T12:23:46.000Z</time>
      </trkpt>
      <trkpt lat="43.50085" lon="6.59124">
        <ele>37.4</ele>
        <time>2019-09-27T12:23:55.000Z</time>
      </trkpt>
      <trkpt lat="43.50076" lon="6.5913">
        <ele>37.2</ele>
        <time>2019-09-27T12:24:5.000Z</time>
      </trkpt>
      <trkpt lat="43.50067" lon="6.59135">
        <ele>37.3</ele>
        <time>2019-09-27T12:24:14.000Z</time>
      </trkpt>
      <trkpt lat="43.50059" lon="6.59142">
        <ele>37.2</ele>
        <time>2019-09-27T12:24:22.000Z</time>
      </trkpt>
      <trkpt lat="43.5005" lon="6.59147">
        <ele>37.3</ele>
        <time>2019-09-27T12:24:30.000Z</time>
      </trkpt>
      <trkpt lat="43.50041" lon="6.59154">
        <ele>37.5</ele>
        <time>2019-09-27T12:24:39.000Z</time>
      </trkpt>
      <trkpt lat="43.50033" lon="6.59158">
        <ele>37.3</ele>
        <time>2019-09-27T12:24:47.000Z</time>
      </trkpt>
      <trkpt lat="43.50023" lon="6.59159">
        <ele>36.7</ele>
        <time>2019-09-27T12:24:56.000Z</time>
      </trkpt>
      <trkpt lat="43.50014" lon="6.59157">
        <ele>36.9</ele>
        <time>2019-09-27T12:25:4.000Z</time>
      </trkpt>
      <trkpt lat="43.50004" lon="6.59157">
        <ele>37.5</ele>
        <time>2019-09-27T12:25:13.000Z</time>
      </trkpt>
      <trkpt lat="43.49994" lon="6.59155">
        <ele>37.1</ele>
        <time>2019-09-27T12:25:22.000Z</time>
      </trkpt>
      <trkpt lat="43.49985" lon="6.59149">
        <ele>36.9</ele>
        <time>2019-09-27T12:25:31.000Z</time>
      </trkpt>
      <trkpt lat="43.49976" lon="6.59144">
        <ele>36.8</ele>
        <time>2019-09-27T12:25:39.000Z</time>
      </trkpt>
      <trkpt lat="43.49967" lon="6.59139">
        <ele>36.5</ele>
        <time>2019-09-27T12:25:48.000Z</time>
      </trkpt>
      <trkpt lat="43.49958" lon="6.59134">
        <ele>36</ele>
        <time>2019-09-27T12:25:57.000Z</time>
      </trkpt>
      <trkpt lat="43.49949" lon="6.5913">
        <ele>35.7</ele>
        <time>2019-09-27T12:26:7.000Z</time>
      </trkpt>
      <trkpt lat="43.4994" lon="6.59127">
        <ele>35.5</ele>
        <time>2019-09-27T12:26:16.000Z</time>
      </trkpt>
      <trkpt lat="43.49931" lon="6.59124">
        <ele>35.6</ele>
        <time>2019-09-27T12:26:24.000Z</time>
      </trkpt>
      <trkpt lat="43.49921" lon="6.59123">
        <ele>35.3</ele>
        <time>2019-09-27T12:26:33.000Z</time>
      </trkpt>
      <trkpt lat="43.49912" lon="6.59124">
        <ele>34.8</ele>
        <time>2019-09-27T12:26:41.000Z</time>
      </trkpt>
      <trkpt lat="43.49903" lon="6.59126">
        <ele>34.7</ele>
        <time>2019-09-27T12:26:49.000Z</time>
      </trkpt>
      <trkpt lat="43.49893" lon="6.59128">
        <ele>34.9</ele>
        <time>2019-09-27T12:26:58.000Z</time>
      </trkpt>
      <trkpt lat="43.49884" lon="6.59132">
        <ele>34.6</ele>
        <time>2019-09-27T12:27:7.000Z</time>
      </trkpt>
      <trkpt lat="43.49874" lon="6.59135">
        <ele>34.8</ele>
        <time>2019-09-27T12:27:15.000Z</time>
      </trkpt>
      <trkpt lat="43.49867" lon="6.59144">
        <ele>34.3</ele>
        <time>2019-09-27T12:27:24.000Z</time>
      </trkpt>
      <trkpt lat="43.4986" lon="6.59155">
        <ele>34.9</ele>
        <time>2019-09-27T12:27:31.000Z</time>
      </trkpt>
      <trkpt lat="43.49853" lon="6.59164">
        <ele>34.3</ele>
        <time>2019-09-27T12:27:40.000Z</time>
      </trkpt>
      <trkpt lat="43.49846" lon="6.59174">
        <ele>34.7</ele>
        <time>2019-09-27T12:27:49.000Z</time>
      </trkpt>
      <trkpt lat="43.49838" lon="6.5918">
        <ele>34.4</ele>
        <time>2019-09-27T12:27:57.000Z</time>
      </trkpt>
      <trkpt lat="43.49831" lon="6.5919">
        <ele>33.9</ele>
        <time>2019-09-27T12:28:6.000Z</time>
      </trkpt>
      <trkpt lat="43.49825" lon="6.592">
        <ele>34</ele>
        <time>2019-09-27T12:28:15.000Z</time>
      </trkpt>
      <trkpt lat="43.49817" lon="6.59206">
        <ele>33.1</ele>
        <time>2019-09-27T12:28:24.000Z</time>
      </trkpt>
      <trkpt lat="43.49808" lon="6.59211">
        <ele>32</ele>
        <time>2019-09-27T12:28:34.000Z</time>
      </trkpt>
      <trkpt lat="43.498" lon="6.59219">
        <ele>31.3</ele>
        <time>2019-09-27T12:28:43.000Z</time>
      </trkpt>
      <trkpt lat="43.49793" lon="6.59227">
        <ele>30.6</ele>
        <time>2019-09-27T12:28:53.000Z</time>
      </trkpt>
      <trkpt lat="43.49787" lon="6.59237">
        <ele>30</ele>
        <time>2019-09-27T12:29:2.000Z</time>
      </trkpt>
      <trkpt lat="43.49782" lon="6.59248">
        <ele>29.8</ele>
        <time>2019-09-27T12:29:12.000Z</time>
      </trkpt>
      <trkpt lat="43.49777" lon="6.59259">
        <ele>29.6</ele>
        <time>2019-09-27T12:29:20.000Z</time>
      </trkpt>
      <trkpt lat="43.49775" lon="6.59271">
        <ele>29</ele>
        <time>2019-09-27T12:29:28.000Z</time>
      </trkpt>
      <trkpt lat="43.49772" lon="6.59284">
        <ele>28.6</ele>
        <time>2019-09-27T12:29:39.000Z</time>
      </trkpt>
      <trkpt lat="43.49768" lon="6.59297">
        <ele>28.4</ele>
        <time>2019-09-27T12:29:48.000Z</time>
      </trkpt>
      <trkpt lat="43.49764" lon="6.59308">
        <ele>27.9</ele>
        <time>2019-09-27T12:29:56.000Z</time>
      </trkpt>
      <trkpt lat="43.49758" lon="6.59319">
        <ele>27.8</ele>
        <time>2019-09-27T12:30:6.000Z</time>
      </trkpt>
      <trkpt lat="43.49752" lon="6.5933">
        <ele>27.7</ele>
        <time>2019-09-27T12:30:15.000Z</time>
      </trkpt>
      <trkpt lat="43.49745" lon="6.59339">
        <ele>27</ele>
        <time>2019-09-27T12:30:25.000Z</time>
      </trkpt>
      <trkpt lat="43.49738" lon="6.59348">
        <ele>26.9</ele>
        <time>2019-09-27T12:30:35.000Z</time>
      </trkpt>
      <trkpt lat="43.4973" lon="6.59355">
        <ele>26.3</ele>
        <time>2019-09-27T12:30:47.000Z</time>
      </trkpt>
      <trkpt lat="43.49722" lon="6.59361">
        <ele>25.4</ele>
        <time>2019-09-27T12:30:58.000Z</time>
      </trkpt>
      <trkpt lat="43.4972" lon="6.59373">
        <ele>25.7</ele>
        <time>2019-09-27T12:31:7.000Z</time>
      </trkpt>
      <trkpt lat="43.49716" lon="6.59385">
        <ele>26.8</ele>
        <time>2019-09-27T12:31:17.000Z</time>
      </trkpt>
      <trkpt lat="43.4971" lon="6.59395">
        <ele>26.7</ele>
        <time>2019-09-27T12:31:25.000Z</time>
      </trkpt>
      <trkpt lat="43.49701" lon="6.59402">
        <ele>26.5</ele>
        <time>2019-09-27T12:31:34.000Z</time>
      </trkpt>
      <trkpt lat="43.49692" lon="6.59405">
        <ele>26.1</ele>
        <time>2019-09-27T12:31:45.000Z</time>
      </trkpt>
      <trkpt lat="43.49685" lon="6.59414">
        <ele>25.9</ele>
        <time>2019-09-27T12:31:54.000Z</time>
      </trkpt>
      <trkpt lat="43.49676" lon="6.5942">
        <ele>25.7</ele>
        <time>2019-09-27T12:32:4.000Z</time>
      </trkpt>
      <trkpt lat="43.49667" lon="6.59422">
        <ele>25.7</ele>
        <time>2019-09-27T12:32:16.000Z</time>
      </trkpt>
      <trkpt lat="43.49657" lon="6.59425">
        <ele>25.7</ele>
        <time>2019-09-27T12:32:27.000Z</time>
      </trkpt>
      <trkpt lat="43.49649" lon="6.5943">
        <ele>25.8</ele>
        <time>2019-09-27T12:32:36.000Z</time>
      </trkpt>
      <trkpt lat="43.4964" lon="6.59434">
        <ele>25.9</ele>
        <time>2019-09-27T12:33:3.000Z</time>
      </trkpt>
      <trkpt lat="43.49632" lon="6.5944">
        <ele>25.8</ele>
        <time>2019-09-27T12:33:14.000Z</time>
      </trkpt>
      <trkpt lat="43.49626" lon="6.59448">
        <ele>25.5</ele>
        <time>2019-09-27T12:33:24.000Z</time>
      </trkpt>
      <trkpt lat="43.49618" lon="6.59457">
        <ele>25.1</ele>
        <time>2019-09-27T12:33:39.000Z</time>
      </trkpt>
      <trkpt lat="43.49609" lon="6.59459">
        <ele>25.3</ele>
        <time>2019-09-27T12:33:52.000Z</time>
      </trkpt>
      <trkpt lat="43.496" lon="6.5946">
        <ele>25.6</ele>
        <time>2019-09-27T12:34:3.000Z</time>
      </trkpt>
      <trkpt lat="43.49591" lon="6.59459">
        <ele>25.6</ele>
        <time>2019-09-27T12:34:14.000Z</time>
      </trkpt>
      <trkpt lat="43.49582" lon="6.5946">
        <ele>25.3</ele>
        <time>2019-09-27T12:34:23.000Z</time>
      </trkpt>
      <trkpt lat="43.49573" lon="6.5946">
        <ele>25.4</ele>
        <time>2019-09-27T12:34:33.000Z</time>
      </trkpt>
      <trkpt lat="43.49563" lon="6.59462">
        <ele>25.2</ele>
        <time>2019-09-27T12:34:46.000Z</time>
      </trkpt>
      <trkpt lat="43.49554" lon="6.59467">
        <ele>25.3</ele>
        <time>2019-09-27T12:34:55.000Z</time>
      </trkpt>
      <trkpt lat="43.49545" lon="6.59469">
        <ele>25.6</ele>
        <time>2019-09-27T12:35:7.000Z</time>
      </trkpt>
      <trkpt lat="43.49535" lon="6.59471">
        <ele>25.7</ele>
        <time>2019-09-27T12:35:19.000Z</time>
      </trkpt>
      <trkpt lat="43.49525" lon="6.59473">
        <ele>25.7</ele>
        <time>2019-09-27T12:35:27.000Z</time>
      </trkpt>
      <trkpt lat="43.49516" lon="6.59475">
        <ele>25.6</ele>
        <time>2019-09-27T12:35:35.000Z</time>
      </trkpt>
      <trkpt lat="43.49507" lon="6.59476">
        <ele>25.6</ele>
        <time>2019-09-27T12:35:43.000Z</time>
      </trkpt>
      <trkpt lat="43.49497" lon="6.59478">
        <ele>25.2</ele>
        <time>2019-09-27T12:35:52.000Z</time>
      </trkpt>
      <trkpt lat="43.49488" lon="6.59482">
        <ele>25.8</ele>
        <time>2019-09-27T12:36:1.000Z</time>
      </trkpt>
      <trkpt lat="43.49478" lon="6.5948">
        <ele>26</ele>
        <time>2019-09-27T12:36:10.000Z</time>
      </trkpt>
      <trkpt lat="43.49469" lon="6.59481">
        <ele>25.4</ele>
        <time>2019-09-27T12:36:19.000Z</time>
      </trkpt>
      <trkpt lat="43.4946" lon="6.59476">
        <ele>25.1</ele>
        <time>2019-09-27T12:36:28.000Z</time>
      </trkpt>
      <trkpt lat="43.49452" lon="6.59482">
        <ele>27</ele>
        <time>2019-09-27T12:37:45.000Z</time>
      </trkpt>
      <trkpt lat="43.49443" lon="6.59484">
        <ele>27.3</ele>
        <time>2019-09-27T12:37:54.000Z</time>
      </trkpt>
      <trkpt lat="43.49434" lon="6.59487">
        <ele>27.7</ele>
        <time>2019-09-27T12:38:4.000Z</time>
      </trkpt>
      <trkpt lat="43.49424" lon="6.59488">
        <ele>27.1</ele>
        <time>2019-09-27T12:38:14.000Z</time>
      </trkpt>
      <trkpt lat="43.49414" lon="6.59489">
        <ele>26.6</ele>
        <time>2019-09-27T12:38:24.000Z</time>
      </trkpt>
      <trkpt lat="43.49405" lon="6.59488">
        <ele>26.6</ele>
        <time>2019-09-27T12:38:36.000Z</time>
      </trkpt>
      <trkpt lat="43.49396" lon="6.59484">
        <ele>26.6</ele>
        <time>2019-09-27T12:38:46.000Z</time>
      </trkpt>
      <trkpt lat="43.49386" lon="6.59479">
        <ele>26.7</ele>
        <time>2019-09-27T12:38:55.000Z</time>
      </trkpt>
      <trkpt lat="43.49378" lon="6.59474">
        <ele>26.5</ele>
        <time>2019-09-27T12:39:6.000Z</time>
      </trkpt>
      <trkpt lat="43.49369" lon="6.59471">
        <ele>25.9</ele>
        <time>2019-09-27T12:39:21.000Z</time>
      </trkpt>
      <trkpt lat="43.49363" lon="6.59462">
        <ele>25.7</ele>
        <time>2019-09-27T12:39:31.000Z</time>
      </trkpt>
      <trkpt lat="43.49355" lon="6.59453">
        <ele>25.7</ele>
        <time>2019-09-27T12:39:41.000Z</time>
      </trkpt>
      <trkpt lat="43.49348" lon="6.59445">
        <ele>26.3</ele>
        <time>2019-09-27T12:39:50.000Z</time>
      </trkpt>
      <trkpt lat="43.49342" lon="6.59435">
        <ele>26.5</ele>
        <time>2019-09-27T12:40:1.000Z</time>
      </trkpt>
      <trkpt lat="43.49338" lon="6.59424">
        <ele>26.9</ele>
        <time>2019-09-27T12:40:11.000Z</time>
      </trkpt>
      <trkpt lat="43.49334" lon="6.59412">
        <ele>26.9</ele>
        <time>2019-09-27T12:40:19.000Z</time>
      </trkpt>
      <trkpt lat="43.49333" lon="6.59399">
        <ele>26.6</ele>
        <time>2019-09-27T12:40:28.000Z</time>
      </trkpt>
      <trkpt lat="43.4933" lon="6.59387">
        <ele>26.3</ele>
        <time>2019-09-27T12:40:37.000Z</time>
      </trkpt>
      <trkpt lat="43.49328" lon="6.59375">
        <ele>26.2</ele>
        <time>2019-09-27T12:40:47.000Z</time>
      </trkpt>
      <trkpt lat="43.49325" lon="6.59362">
        <ele>26.7</ele>
        <time>2019-09-27T12:40:57.000Z</time>
      </trkpt>
      <trkpt lat="43.49324" lon="6.59349">
        <ele>26.6</ele>
        <time>2019-09-27T12:41:8.000Z</time>
      </trkpt>
      <trkpt lat="43.49324" lon="6.59336">
        <ele>26.3</ele>
        <time>2019-09-27T12:41:18.000Z</time>
      </trkpt>
      <trkpt lat="43.49325" lon="6.59323">
        <ele>26.5</ele>
        <time>2019-09-27T12:41:26.000Z</time>
      </trkpt>
      <trkpt lat="43.49325" lon="6.5931">
        <ele>26.1</ele>
        <time>2019-09-27T12:41:33.000Z</time>
      </trkpt>
      <trkpt lat="43.49322" lon="6.59298">
        <ele>25.9</ele>
        <time>2019-09-27T12:41:42.000Z</time>
      </trkpt>
      <trkpt lat="43.49325" lon="6.59285">
        <ele>25.7</ele>
        <time>2019-09-27T12:41:55.000Z</time>
      </trkpt>
      <trkpt lat="43.49325" lon="6.59272">
        <ele>25.2</ele>
        <time>2019-09-27T12:42:5.000Z</time>
      </trkpt>
      <trkpt lat="43.49324" lon="6.59259">
        <ele>24.9</ele>
        <time>2019-09-27T12:42:16.000Z</time>
      </trkpt>
      <trkpt lat="43.49323" lon="6.59246">
        <ele>25.1</ele>
        <time>2019-09-27T12:42:25.000Z</time>
      </trkpt>
      <trkpt lat="43.49324" lon="6.59233">
        <ele>25</ele>
        <time>2019-09-27T12:42:35.000Z</time>
      </trkpt>
      <trkpt lat="43.49327" lon="6.5922">
        <ele>25.3</ele>
        <time>2019-09-27T12:42:47.000Z</time>
      </trkpt>
      <trkpt lat="43.49326" lon="6.59208">
        <ele>25.4</ele>
        <time>2019-09-27T12:42:56.000Z</time>
      </trkpt>
      <trkpt lat="43.49324" lon="6.59195">
        <ele>26.2</ele>
        <time>2019-09-27T12:43:12.000Z</time>
      </trkpt>
      <trkpt lat="43.49324" lon="6.59182">
        <ele>27.1</ele>
        <time>2019-09-27T12:43:22.000Z</time>
      </trkpt>
      <trkpt lat="43.49323" lon="6.5917">
        <ele>26.8</ele>
        <time>2019-09-27T12:43:37.000Z</time>
      </trkpt>
      <trkpt lat="43.49323" lon="6.59157">
        <ele>26.4</ele>
        <time>2019-09-27T12:43:51.000Z</time>
      </trkpt>
      <trkpt lat="43.4932" lon="6.59145">
        <ele>26.6</ele>
        <time>2019-09-27T12:44:2.000Z</time>
      </trkpt>
      <trkpt lat="43.49317" lon="6.59133">
        <ele>26.7</ele>
        <time>2019-09-27T12:44:15.000Z</time>
      </trkpt>
      <trkpt lat="43.49316" lon="6.5912">
        <ele>26.3</ele>
        <time>2019-09-27T12:44:25.000Z</time>
      </trkpt>
      <trkpt lat="43.49315" lon="6.59107">
        <ele>26.2</ele>
        <time>2019-09-27T12:44:44.000Z</time>
      </trkpt>
      <trkpt lat="43.49312" lon="6.59094">
        <ele>26.6</ele>
        <time>2019-09-27T12:44:54.000Z</time>
      </trkpt>
      <trkpt lat="43.4931" lon="6.59082">
        <ele>26.6</ele>
        <time>2019-09-27T12:45:5.000Z</time>
      </trkpt>
      <trkpt lat="43.49306" lon="6.5907">
        <ele>27.1</ele>
        <time>2019-09-27T12:51:13.000Z</time>
      </trkpt>
      <trkpt lat="43.49302" lon="6.59059">
        <ele>27.2</ele>
        <time>2019-09-27T12:51:25.000Z</time>
      </trkpt>
      <trkpt lat="43.49296" lon="6.59048">
        <ele>27.4</ele>
        <time>2019-09-27T12:51:35.000Z</time>
      </trkpt>
      <trkpt lat="43.49289" lon="6.59039">
        <ele>28.1</ele>
        <time>2019-09-27T12:51:44.000Z</time>
      </trkpt>
      <trkpt lat="43.4928" lon="6.59033">
        <ele>28.4</ele>
        <time>2019-09-27T12:51:53.000Z</time>
      </trkpt>
      <trkpt lat="43.49271" lon="6.59029">
        <ele>28.4</ele>
        <time>2019-09-27T12:52:3.000Z</time>
      </trkpt>
      <trkpt lat="43.49262" lon="6.59026">
        <ele>28.1</ele>
        <time>2019-09-27T12:53:29.000Z</time>
      </trkpt>
      <trkpt lat="43.49255" lon="6.59036">
        <ele>26.3</ele>
        <time>2019-09-27T12:53:40.000Z</time>
      </trkpt>
      <trkpt lat="43.49254" lon="6.59049">
        <ele>25.8</ele>
        <time>2019-09-27T12:53:52.000Z</time>
      </trkpt>
      <trkpt lat="43.49253" lon="6.59063">
        <ele>25.4</ele>
        <time>2019-09-27T12:54:2.000Z</time>
      </trkpt>
      <trkpt lat="43.49246" lon="6.59072">
        <ele>25.3</ele>
        <time>2019-09-27T12:54:11.000Z</time>
      </trkpt>
      <trkpt lat="43.49237" lon="6.59077">
        <ele>25.5</ele>
        <time>2019-09-27T12:54:20.000Z</time>
      </trkpt>
      <trkpt lat="43.4923" lon="6.59083">
        <ele>25.9</ele>
        <time>2019-09-27T12:55:1.000Z</time>
      </trkpt>
      <trkpt lat="43.49221" lon="6.59089">
        <ele>25.9</ele>
        <time>2019-09-27T12:55:9.000Z</time>
      </trkpt>
      <trkpt lat="43.49212" lon="6.59094">
        <ele>26.2</ele>
        <time>2019-09-27T12:55:17.000Z</time>
      </trkpt>
      <trkpt lat="43.49204" lon="6.59101">
        <ele>25.4</ele>
        <time>2019-09-27T12:55:25.000Z</time>
      </trkpt>
      <trkpt lat="43.49195" lon="6.59107">
        <ele>25.5</ele>
        <time>2019-09-27T12:55:34.000Z</time>
      </trkpt>
      <trkpt lat="43.49188" lon="6.59114">
        <ele>25.8</ele>
        <time>2019-09-27T12:55:42.000Z</time>
      </trkpt>
      <trkpt lat="43.49179" lon="6.5912">
        <ele>25.9</ele>
        <time>2019-09-27T12:55:50.000Z</time>
      </trkpt>
      <trkpt lat="43.49171" lon="6.59126">
        <ele>26</ele>
        <time>2019-09-27T12:55:59.000Z</time>
      </trkpt>
      <trkpt lat="43.49163" lon="6.59132">
        <ele>26</ele>
        <time>2019-09-27T12:56:7.000Z</time>
      </trkpt>
      <trkpt lat="43.49155" lon="6.59138">
        <ele>25.7</ele>
        <time>2019-09-27T12:56:13.000Z</time>
      </trkpt>
      <trkpt lat="43.49145" lon="6.59143">
        <ele>25.9</ele>
        <time>2019-09-27T12:56:22.000Z</time>
      </trkpt>
      <trkpt lat="43.49136" lon="6.59146">
        <ele>26</ele>
        <time>2019-09-27T12:56:30.000Z</time>
      </trkpt>
      <trkpt lat="43.49127" lon="6.59152">
        <ele>26.2</ele>
        <time>2019-09-27T12:56:38.000Z</time>
      </trkpt>
      <trkpt lat="43.49119" lon="6.59158">
        <ele>26.2</ele>
        <time>2019-09-27T12:56:46.000Z</time>
      </trkpt>
      <trkpt lat="43.49111" lon="6.59165">
        <ele>26.1</ele>
        <time>2019-09-27T12:57:19.000Z</time>
      </trkpt>
      <trkpt lat="43.49103" lon="6.59171">
        <ele>26</ele>
        <time>2019-09-27T12:57:28.000Z</time>
      </trkpt>
      <trkpt lat="43.49095" lon="6.59178">
        <ele>26</ele>
        <time>2019-09-27T12:57:37.000Z</time>
      </trkpt>
      <trkpt lat="43.49087" lon="6.59186">
        <ele>26.2</ele>
        <time>2019-09-27T12:57:46.000Z</time>
      </trkpt>
      <trkpt lat="43.49079" lon="6.59193">
        <ele>26.2</ele>
        <time>2019-09-27T12:57:53.000Z</time>
      </trkpt>
      <trkpt lat="43.49071" lon="6.59202">
        <ele>25.8</ele>
        <time>2019-09-27T12:58:1.000Z</time>
      </trkpt>
      <trkpt lat="43.49063" lon="6.5921">
        <ele>25.7</ele>
        <time>2019-09-27T12:58:10.000Z</time>
      </trkpt>
      <trkpt lat="43.49055" lon="6.59218">
        <ele>26.3</ele>
        <time>2019-09-27T12:58:18.000Z</time>
      </trkpt>
      <trkpt lat="43.49048" lon="6.59226">
        <ele>26.5</ele>
        <time>2019-09-27T12:58:26.000Z</time>
      </trkpt>
      <trkpt lat="43.4904" lon="6.59234">
        <ele>27.3</ele>
        <time>2019-09-27T12:58:34.000Z</time>
      </trkpt>
      <trkpt lat="43.49032" lon="6.5924">
        <ele>28</ele>
        <time>2019-09-27T12:58:43.000Z</time>
      </trkpt>
      <trkpt lat="43.49025" lon="6.59247">
        <ele>28.6</ele>
        <time>2019-09-27T12:58:52.000Z</time>
      </trkpt>
      <trkpt lat="43.49017" lon="6.59255">
        <ele>28.8</ele>
        <time>2019-09-27T12:59:0.000Z</time>
      </trkpt>
      <trkpt lat="43.4901" lon="6.59264">
        <ele>28.9</ele>
        <time>2019-09-27T12:59:8.000Z</time>
      </trkpt>
      <trkpt lat="43.49002" lon="6.59272">
        <ele>29.1</ele>
        <time>2019-09-27T12:59:15.000Z</time>
      </trkpt>
      <trkpt lat="43.48994" lon="6.5928">
        <ele>29</ele>
        <time>2019-09-27T12:59:24.000Z</time>
      </trkpt>
      <trkpt lat="43.48987" lon="6.59287">
        <ele>28.6</ele>
        <time>2019-09-27T12:59:32.000Z</time>
      </trkpt>
      <trkpt lat="43.4898" lon="6.59296">
        <ele>28.9</ele>
        <time>2019-09-27T12:59:40.000Z</time>
      </trkpt>
      <trkpt lat="43.48973" lon="6.59303">
        <ele>29</ele>
        <time>2019-09-27T12:59:48.000Z</time>
      </trkpt>
      <trkpt lat="43.48965" lon="6.5931">
        <ele>29.3</ele>
        <time>2019-09-27T12:59:57.000Z</time>
      </trkpt>
      <trkpt lat="43.48956" lon="6.59314">
        <ele>29.3</ele>
        <time>2019-09-27T13:00:58.000Z</time>
      </trkpt>
      <trkpt lat="43.48947" lon="6.5932">
        <ele>29.3</ele>
        <time>2019-09-27T13:01:9.000Z</time>
      </trkpt>
      <trkpt lat="43.48939" lon="6.59328">
        <ele>29.6</ele>
        <time>2019-09-27T13:01:19.000Z</time>
      </trkpt>
      <trkpt lat="43.48933" lon="6.59339">
        <ele>29.3</ele>
        <time>2019-09-27T13:01:29.000Z</time>
      </trkpt>
      <trkpt lat="43.48926" lon="6.59347">
        <ele>29</ele>
        <time>2019-09-27T13:01:37.000Z</time>
      </trkpt>
      <trkpt lat="43.48918" lon="6.59353">
        <ele>29.1</ele>
        <time>2019-09-27T13:02:1.000Z</time>
      </trkpt>
      <trkpt lat="43.48909" lon="6.59354">
        <ele>29.1</ele>
        <time>2019-09-27T13:02:15.000Z</time>
      </trkpt>
      <trkpt lat="43.48899" lon="6.59351">
        <ele>28.4</ele>
        <time>2019-09-27T13:02:24.000Z</time>
      </trkpt>
      <trkpt lat="43.4889" lon="6.59354">
        <ele>27.2</ele>
        <time>2019-09-27T13:02:33.000Z</time>
      </trkpt>
      <trkpt lat="43.48882" lon="6.5936">
        <ele>26</ele>
        <time>2019-09-27T13:02:41.000Z</time>
      </trkpt>
      <trkpt lat="43.48873" lon="6.59367">
        <ele>25.5</ele>
        <time>2019-09-27T13:02:50.000Z</time>
      </trkpt>
      <trkpt lat="43.48865" lon="6.59372">
        <ele>25.6</ele>
        <time>2019-09-27T13:02:58.000Z</time>
      </trkpt>
      <trkpt lat="43.48855" lon="6.59371">
        <ele>25.4</ele>
        <time>2019-09-27T13:03:7.000Z</time>
      </trkpt>
      <trkpt lat="43.48846" lon="6.59368">
        <ele>25.1</ele>
        <time>2019-09-27T13:03:16.000Z</time>
      </trkpt>
      <trkpt lat="43.48837" lon="6.59365">
        <ele>25.9</ele>
        <time>2019-09-27T13:03:30.000Z</time>
      </trkpt>
      <trkpt lat="43.48828" lon="6.59363">
        <ele>26.1</ele>
        <time>2019-09-27T13:03:40.000Z</time>
      </trkpt>
      <trkpt lat="43.48837" lon="6.59362">
        <ele>26.4</ele>
        <time>2019-09-27T13:05:24.000Z</time>
      </trkpt>
      <trkpt lat="43.48846" lon="6.59366">
        <ele>25.6</ele>
        <time>2019-09-27T13:05:39.000Z</time>
      </trkpt>
      <trkpt lat="43.48855" lon="6.59369">
        <ele>25</ele>
        <time>2019-09-27T13:05:48.000Z</time>
      </trkpt>
      <trkpt lat="43.48865" lon="6.5937">
        <ele>25.7</ele>
        <time>2019-09-27T13:05:59.000Z</time>
      </trkpt>
      <trkpt lat="43.48874" lon="6.59372">
        <ele>25.7</ele>
        <time>2019-09-27T13:06:10.000Z</time>
      </trkpt>
      <trkpt lat="43.48883" lon="6.59372">
        <ele>26</ele>
        <time>2019-09-27T13:06:18.000Z</time>
      </trkpt>
      <trkpt lat="43.48893" lon="6.5937">
        <ele>27.9</ele>
        <time>2019-09-27T13:06:29.000Z</time>
      </trkpt>
      <trkpt lat="43.48903" lon="6.5937">
        <ele>28.9</ele>
        <time>2019-09-27T13:06:45.000Z</time>
      </trkpt>
      <trkpt lat="43.48912" lon="6.59371">
        <ele>29.1</ele>
        <time>2019-09-27T13:06:54.000Z</time>
      </trkpt>
      <trkpt lat="43.48921" lon="6.59373">
        <ele>29.1</ele>
        <time>2019-09-27T13:07:3.000Z</time>
      </trkpt>
      <trkpt lat="43.4893" lon="6.59378">
        <ele>29.1</ele>
        <time>2019-09-27T13:07:13.000Z</time>
      </trkpt>
      <trkpt lat="43.4894" lon="6.5938">
        <ele>29</ele>
        <time>2019-09-27T13:07:22.000Z</time>
      </trkpt>
      <trkpt lat="43.48947" lon="6.59386">
        <ele>29.2</ele>
        <time>2019-09-27T13:07:30.000Z</time>
      </trkpt>
      <trkpt lat="43.48953" lon="6.59397">
        <ele>29.3</ele>
        <time>2019-09-27T13:07:40.000Z</time>
      </trkpt>
      <trkpt lat="43.4896" lon="6.59405">
        <ele>29.4</ele>
        <time>2019-09-27T13:07:52.000Z</time>
      </trkpt>
      <trkpt lat="43.48968" lon="6.59412">
        <ele>30.3</ele>
        <time>2019-09-27T13:08:29.000Z</time>
      </trkpt>
      <trkpt lat="43.48976" lon="6.59416">
        <ele>31.6</ele>
        <time>2019-09-27T13:08:43.000Z</time>
      </trkpt>
      <trkpt lat="43.48985" lon="6.59419">
        <ele>33.5</ele>
        <time>2019-09-27T13:12:18.000Z</time>
      </trkpt>
      <trkpt lat="43.48995" lon="6.59419">
        <ele>35.7</ele>
        <time>2019-09-27T13:12:31.000Z</time>
      </trkpt>
      <trkpt lat="43.49004" lon="6.5942">
        <ele>38.1</ele>
        <time>2019-09-27T13:12:46.000Z</time>
      </trkpt>
      <trkpt lat="43.49013" lon="6.59422">
        <ele>39.5</ele>
        <time>2019-09-27T13:12:56.000Z</time>
      </trkpt>
      <trkpt lat="43.49022" lon="6.5942">
        <ele>41.3</ele>
        <time>2019-09-27T13:13:7.000Z</time>
      </trkpt>
      <trkpt lat="43.49031" lon="6.59416">
        <ele>43.4</ele>
        <time>2019-09-27T13:13:19.000Z</time>
      </trkpt>
      <trkpt lat="43.49041" lon="6.59418">
        <ele>44.6</ele>
        <time>2019-09-27T13:13:29.000Z</time>
      </trkpt>
      <trkpt lat="43.49049" lon="6.59424">
        <ele>45.2</ele>
        <time>2019-09-27T13:13:38.000Z</time>
      </trkpt>
      <trkpt lat="43.49057" lon="6.59431">
        <ele>45.8</ele>
        <time>2019-09-27T13:13:47.000Z</time>
      </trkpt>
      <trkpt lat="43.49066" lon="6.59436">
        <ele>46.3</ele>
        <time>2019-09-27T13:13:55.000Z</time>
      </trkpt>
      <trkpt lat="43.49075" lon="6.59442">
        <ele>47</ele>
        <time>2019-09-27T13:14:4.000Z</time>
      </trkpt>
      <trkpt lat="43.49081" lon="6.59451">
        <ele>47.6</ele>
        <time>2019-09-27T13:14:13.000Z</time>
      </trkpt>
      <trkpt lat="43.49088" lon="6.59461">
        <ele>47.3</ele>
        <time>2019-09-27T13:14:24.000Z</time>
      </trkpt>
      <trkpt lat="43.49093" lon="6.59471">
        <ele>47.1</ele>
        <time>2019-09-27T13:14:31.000Z</time>
      </trkpt>
      <trkpt lat="43.491" lon="6.59479">
        <ele>46.7</ele>
        <time>2019-09-27T13:14:39.000Z</time>
      </trkpt>
      <trkpt lat="43.49109" lon="6.59484">
        <ele>46.3</ele>
        <time>2019-09-27T13:14:48.000Z</time>
      </trkpt>
      <trkpt lat="43.49118" lon="6.59488">
        <ele>46.8</ele>
        <time>2019-09-27T13:14:58.000Z</time>
      </trkpt>
      <trkpt lat="43.49127" lon="6.59494">
        <ele>46.9</ele>
        <time>2019-09-27T13:15:7.000Z</time>
      </trkpt>
      <trkpt lat="43.49136" lon="6.59499">
        <ele>47</ele>
        <time>2019-09-27T13:15:17.000Z</time>
      </trkpt>
      <trkpt lat="43.49145" lon="6.59504">
        <ele>47</ele>
        <time>2019-09-27T13:15:26.000Z</time>
      </trkpt>
      <trkpt lat="43.49155" lon="6.59506">
        <ele>47.5</ele>
        <time>2019-09-27T13:15:36.000Z</time>
      </trkpt>
      <trkpt lat="43.49164" lon="6.59506">
        <ele>48</ele>
        <time>2019-09-27T13:15:46.000Z</time>
      </trkpt>
      <trkpt lat="43.49173" lon="6.59507">
        <ele>48.6</ele>
        <time>2019-09-27T13:15:57.000Z</time>
      </trkpt>
      <trkpt lat="43.49183" lon="6.59508">
        <ele>49</ele>
        <time>2019-09-27T13:16:7.000Z</time>
      </trkpt>
      <trkpt lat="43.49192" lon="6.59514">
        <ele>50.1</ele>
        <time>2019-09-27T13:16:16.000Z</time>
      </trkpt>
      <trkpt lat="43.49201" lon="6.59519">
        <ele>50.8</ele>
        <time>2019-09-27T13:16:24.000Z</time>
      </trkpt>
      <trkpt lat="43.49209" lon="6.59526">
        <ele>51.7</ele>
        <time>2019-09-27T13:16:34.000Z</time>
      </trkpt>
      <trkpt lat="43.49218" lon="6.5953">
        <ele>52</ele>
        <time>2019-09-27T13:16:43.000Z</time>
      </trkpt>
      <trkpt lat="43.49227" lon="6.59534">
        <ele>52.4</ele>
        <time>2019-09-27T13:16:53.000Z</time>
      </trkpt>
      <trkpt lat="43.49235" lon="6.5954">
        <ele>52.6</ele>
        <time>2019-09-27T13:17:3.000Z</time>
      </trkpt>
      <trkpt lat="43.49243" lon="6.59548">
        <ele>53.2</ele>
        <time>2019-09-27T13:17:13.000Z</time>
      </trkpt>
      <trkpt lat="43.49252" lon="6.59555">
        <ele>53.5</ele>
        <time>2019-09-27T13:17:23.000Z</time>
      </trkpt>
      <trkpt lat="43.49258" lon="6.59564">
        <ele>53.4</ele>
        <time>2019-09-27T13:17:32.000Z</time>
      </trkpt>
      <trkpt lat="43.49264" lon="6.59575">
        <ele>53.5</ele>
        <time>2019-09-27T13:17:41.000Z</time>
      </trkpt>
      <trkpt lat="43.49269" lon="6.59587">
        <ele>54.3</ele>
        <time>2019-09-27T13:17:51.000Z</time>
      </trkpt>
      <trkpt lat="43.49278" lon="6.59593">
        <ele>54.7</ele>
        <time>2019-09-27T13:18:1.000Z</time>
      </trkpt>
      <trkpt lat="43.49287" lon="6.59597">
        <ele>54.4</ele>
        <time>2019-09-27T13:18:12.000Z</time>
      </trkpt>
      <trkpt lat="43.49295" lon="6.59604">
        <ele>54.2</ele>
        <time>2019-09-27T13:18:22.000Z</time>
      </trkpt>
      <trkpt lat="43.49304" lon="6.59611">
        <ele>54</ele>
        <time>2019-09-27T13:18:31.000Z</time>
      </trkpt>
      <trkpt lat="43.49312" lon="6.59617">
        <ele>54.1</ele>
        <time>2019-09-27T13:18:38.000Z</time>
      </trkpt>
      <trkpt lat="43.4932" lon="6.59624">
        <ele>54</ele>
        <time>2019-09-27T13:18:46.000Z</time>
      </trkpt>
      <trkpt lat="43.49327" lon="6.59632">
        <ele>53.9</ele>
        <time>2019-09-27T13:18:55.000Z</time>
      </trkpt>
      <trkpt lat="43.49335" lon="6.59638">
        <ele>53.9</ele>
        <time>2019-09-27T13:19:3.000Z</time>
      </trkpt>
      <trkpt lat="43.49343" lon="6.59644">
        <ele>53.7</ele>
        <time>2019-09-27T13:19:11.000Z</time>
      </trkpt>
      <trkpt lat="43.49353" lon="6.59647">
        <ele>53.6</ele>
        <time>2019-09-27T13:19:20.000Z</time>
      </trkpt>
      <trkpt lat="43.49362" lon="6.59649">
        <ele>53.9</ele>
        <time>2019-09-27T13:19:28.000Z</time>
      </trkpt>
      <trkpt lat="43.49371" lon="6.59647">
        <ele>54.5</ele>
        <time>2019-09-27T13:19:38.000Z</time>
      </trkpt>
      <trkpt lat="43.49381" lon="6.59646">
        <ele>54.9</ele>
        <time>2019-09-27T13:19:47.000Z</time>
      </trkpt>
      <trkpt lat="43.4939" lon="6.59647">
        <ele>55.2</ele>
        <time>2019-09-27T13:19:56.000Z</time>
      </trkpt>
      <trkpt lat="43.49399" lon="6.59649">
        <ele>55.5</ele>
        <time>2019-09-27T13:20:5.000Z</time>
      </trkpt>
      <trkpt lat="43.49408" lon="6.59647">
        <ele>55.7</ele>
        <time>2019-09-27T13:20:13.000Z</time>
      </trkpt>
      <trkpt lat="43.49417" lon="6.59643">
        <ele>56</ele>
        <time>2019-09-27T13:20:22.000Z</time>
      </trkpt>
      <trkpt lat="43.49426" lon="6.59637">
        <ele>56.6</ele>
        <time>2019-09-27T13:20:32.000Z</time>
      </trkpt>
      <trkpt lat="43.49434" lon="6.59632">
        <ele>57.4</ele>
        <time>2019-09-27T13:20:42.000Z</time>
      </trkpt>
      <trkpt lat="43.49444" lon="6.59636">
        <ele>58.8</ele>
        <time>2019-09-27T13:20:52.000Z</time>
      </trkpt>
      <trkpt lat="43.49452" lon="6.59641">
        <ele>59.7</ele>
        <time>2019-09-27T13:21:0.000Z</time>
      </trkpt>
      <trkpt lat="43.49461" lon="6.59646">
        <ele>60.8</ele>
        <time>2019-09-27T13:21:10.000Z</time>
      </trkpt>
      <trkpt lat="43.49471" lon="6.59651">
        <ele>61.6</ele>
        <time>2019-09-27T13:21:20.000Z</time>
      </trkpt>
      <trkpt lat="43.49479" lon="6.59657">
        <ele>62</ele>
        <time>2019-09-27T13:21:29.000Z</time>
      </trkpt>
      <trkpt lat="43.49487" lon="6.59662">
        <ele>62.2</ele>
        <time>2019-09-27T13:21:38.000Z</time>
      </trkpt>
      <trkpt lat="43.49496" lon="6.59668">
        <ele>62.6</ele>
        <time>2019-09-27T13:21:47.000Z</time>
      </trkpt>
      <trkpt lat="43.49506" lon="6.5967">
        <ele>62.7</ele>
        <time>2019-09-27T13:21:55.000Z</time>
      </trkpt>
      <trkpt lat="43.49515" lon="6.59671">
        <ele>62.8</ele>
        <time>2019-09-27T13:22:4.000Z</time>
      </trkpt>
      <trkpt lat="43.49524" lon="6.59673">
        <ele>63.2</ele>
        <time>2019-09-27T13:22:12.000Z</time>
      </trkpt>
      <trkpt lat="43.49533" lon="6.59677">
        <ele>63.6</ele>
        <time>2019-09-27T13:22:20.000Z</time>
      </trkpt>
      <trkpt lat="43.49543" lon="6.59678">
        <ele>64.4</ele>
        <time>2019-09-27T13:22:29.000Z</time>
      </trkpt>
      <trkpt lat="43.49552" lon="6.59681">
        <ele>65.2</ele>
        <time>2019-09-27T13:22:38.000Z</time>
      </trkpt>
      <trkpt lat="43.49561" lon="6.59685">
        <ele>66.1</ele>
        <time>2019-09-27T13:22:48.000Z</time>
      </trkpt>
      <trkpt lat="43.4957" lon="6.5969">
        <ele>67.2</ele>
        <time>2019-09-27T13:22:57.000Z</time>
      </trkpt>
      <trkpt lat="43.49578" lon="6.59696">
        <ele>68.1</ele>
        <time>2019-09-27T13:23:6.000Z</time>
      </trkpt>
      <trkpt lat="43.49587" lon="6.597">
        <ele>68.5</ele>
        <time>2019-09-27T13:23:14.000Z</time>
      </trkpt>
      <trkpt lat="43.49596" lon="6.59703">
        <ele>68.8</ele>
        <time>2019-09-27T13:23:23.000Z</time>
      </trkpt>
      <trkpt lat="43.49605" lon="6.59709">
        <ele>68.9</ele>
        <time>2019-09-27T13:23:32.000Z</time>
      </trkpt>
      <trkpt lat="43.49614" lon="6.59715">
        <ele>68.7</ele>
        <time>2019-09-27T13:23:41.000Z</time>
      </trkpt>
      <trkpt lat="43.49622" lon="6.5972">
        <ele>69.2</ele>
        <time>2019-09-27T13:23:49.000Z</time>
      </trkpt>
      <trkpt lat="43.49631" lon="6.59724">
        <ele>69.7</ele>
        <time>2019-09-27T13:23:58.000Z</time>
      </trkpt>
      <trkpt lat="43.4964" lon="6.5973">
        <ele>70.2</ele>
        <time>2019-09-27T13:24:8.000Z</time>
      </trkpt>
      <trkpt lat="43.49648" lon="6.59736">
        <ele>71.2</ele>
        <time>2019-09-27T13:25:20.000Z</time>
      </trkpt>
      <trkpt lat="43.4965" lon="6.59749">
        <ele>71.8</ele>
        <time>2019-09-27T13:30:56.000Z</time>
      </trkpt>
      <trkpt lat="43.4965" lon="6.59762">
        <ele>72.7</ele>
        <time>2019-09-27T13:31:5.000Z</time>
      </trkpt>
      <trkpt lat="43.49652" lon="6.59774">
        <ele>72.6</ele>
        <time>2019-09-27T13:31:14.000Z</time>
      </trkpt>
      <trkpt lat="43.49652" lon="6.59787">
        <ele>72.6</ele>
        <time>2019-09-27T13:31:23.000Z</time>
      </trkpt>
      <trkpt lat="43.49653" lon="6.59801">
        <ele>72.8</ele>
        <time>2019-09-27T13:31:32.000Z</time>
      </trkpt>
      <trkpt lat="43.49654" lon="6.59814">
        <ele>73.4</ele>
        <time>2019-09-27T13:31:41.000Z</time>
      </trkpt>
      <trkpt lat="43.49658" lon="6.59827">
        <ele>73.7</ele>
        <time>2019-09-27T13:31:49.000Z</time>
      </trkpt>
      <trkpt lat="43.49663" lon="6.59838">
        <ele>73.7</ele>
        <time>2019-09-27T13:31:56.000Z</time>
      </trkpt>
      <trkpt lat="43.49668" lon="6.59849">
        <ele>73.9</ele>
        <time>2019-09-27T13:32:4.000Z</time>
      </trkpt>
      <trkpt lat="43.49672" lon="6.59861">
        <ele>73.8</ele>
        <time>2019-09-27T13:32:13.000Z</time>
      </trkpt>
      <trkpt lat="43.49676" lon="6.59873">
        <ele>73.5</ele>
        <time>2019-09-27T13:32:22.000Z</time>
      </trkpt>
      <trkpt lat="43.49683" lon="6.59884">
        <ele>73.3</ele>
        <time>2019-09-27T13:32:31.000Z</time>
      </trkpt>
      <trkpt lat="43.49691" lon="6.59891">
        <ele>73.3</ele>
        <time>2019-09-27T13:32:39.000Z</time>
      </trkpt>
      <trkpt lat="43.49699" lon="6.59897">
        <ele>73.2</ele>
        <time>2019-09-27T13:32:52.000Z</time>
      </trkpt>
      <trkpt lat="43.49707" lon="6.59902">
        <ele>72.9</ele>
        <time>2019-09-27T13:34:47.000Z</time>
      </trkpt>
      <trkpt lat="43.49716" lon="6.59909">
        <ele>72.7</ele>
        <time>2019-09-27T13:34:57.000Z</time>
      </trkpt>
      <trkpt lat="43.49724" lon="6.59916">
        <ele>72</ele>
        <time>2019-09-27T13:35:6.000Z</time>
      </trkpt>
      <trkpt lat="43.49731" lon="6.59923">
        <ele>71.9</ele>
        <time>2019-09-27T13:35:16.000Z</time>
      </trkpt>
      <trkpt lat="43.49738" lon="6.59931">
        <ele>71.7</ele>
        <time>2019-09-27T13:35:24.000Z</time>
      </trkpt>
      <trkpt lat="43.49746" lon="6.59939">
        <ele>72</ele>
        <time>2019-09-27T13:35:33.000Z</time>
      </trkpt>
      <trkpt lat="43.49753" lon="6.59947">
        <ele>72.5</ele>
        <time>2019-09-27T13:35:41.000Z</time>
      </trkpt>
      <trkpt lat="43.49761" lon="6.59955">
        <ele>72.8</ele>
        <time>2019-09-27T13:35:50.000Z</time>
      </trkpt>
      <trkpt lat="43.49768" lon="6.59963">
        <ele>72.7</ele>
        <time>2019-09-27T13:35:59.000Z</time>
      </trkpt>
      <trkpt lat="43.49777" lon="6.59969">
        <ele>73</ele>
        <time>2019-09-27T13:36:8.000Z</time>
      </trkpt>
      <trkpt lat="43.49785" lon="6.59975">
        <ele>73.1</ele>
        <time>2019-09-27T13:36:16.000Z</time>
      </trkpt>
      <trkpt lat="43.49793" lon="6.59984">
        <ele>73.2</ele>
        <time>2019-09-27T13:36:25.000Z</time>
      </trkpt>
      <trkpt lat="43.49799" lon="6.59993">
        <ele>73.1</ele>
        <time>2019-09-27T13:36:33.000Z</time>
      </trkpt>
      <trkpt lat="43.49806" lon="6.60003">
        <ele>73.3</ele>
        <time>2019-09-27T13:36:41.000Z</time>
      </trkpt>
      <trkpt lat="43.49812" lon="6.60013">
        <ele>73.6</ele>
        <time>2019-09-27T13:36:50.000Z</time>
      </trkpt>
      <trkpt lat="43.4982" lon="6.60018">
        <ele>74.2</ele>
        <time>2019-09-27T13:39:24.000Z</time>
      </trkpt>
      <trkpt lat="43.49825" lon="6.6003">
        <ele>74.4</ele>
        <time>2019-09-27T13:39:34.000Z</time>
      </trkpt>
      <trkpt lat="43.49825" lon="6.60043">
        <ele>73.9</ele>
        <time>2019-09-27T13:39:43.000Z</time>
      </trkpt>
      <trkpt lat="43.49825" lon="6.60056">
        <ele>74.2</ele>
        <time>2019-09-27T13:39:52.000Z</time>
      </trkpt>
      <trkpt lat="43.49827" lon="6.60069">
        <ele>74.3</ele>
        <time>2019-09-27T13:40:2.000Z</time>
      </trkpt>
      <trkpt lat="43.49829" lon="6.60082">
        <ele>74.6</ele>
        <time>2019-09-27T13:40:10.000Z</time>
      </trkpt>
      <trkpt lat="43.49831" lon="6.60094">
        <ele>74.7</ele>
        <time>2019-09-27T13:40:21.000Z</time>
      </trkpt>
      <trkpt lat="43.49834" lon="6.60107">
        <ele>74.8</ele>
        <time>2019-09-27T13:40:30.000Z</time>
      </trkpt>
      <trkpt lat="43.49838" lon="6.60119">
        <ele>75</ele>
        <time>2019-09-27T13:40:39.000Z</time>
      </trkpt>
      <trkpt lat="43.49843" lon="6.6013">
        <ele>76.1</ele>
        <time>2019-09-27T13:40:48.000Z</time>
      </trkpt>
      <trkpt lat="43.49841" lon="6.60142">
        <ele>75.7</ele>
        <time>2019-09-27T13:41:0.000Z</time>
      </trkpt>
      <trkpt lat="43.49836" lon="6.60152">
        <ele>75.9</ele>
        <time>2019-09-27T13:41:9.000Z</time>
      </trkpt>
      <trkpt lat="43.4983" lon="6.60162">
        <ele>75.5</ele>
        <time>2019-09-27T13:41:18.000Z</time>
      </trkpt>
      <trkpt lat="43.49823" lon="6.60172">
        <ele>75.1</ele>
        <time>2019-09-27T13:41:27.000Z</time>
      </trkpt>
      <trkpt lat="43.49814" lon="6.60178">
        <ele>74.8</ele>
        <time>2019-09-27T13:41:36.000Z</time>
      </trkpt>
      <trkpt lat="43.49805" lon="6.60183">
        <ele>74.7</ele>
        <time>2019-09-27T13:41:45.000Z</time>
      </trkpt>
      <trkpt lat="43.49797" lon="6.6019">
        <ele>74.6</ele>
        <time>2019-09-27T13:41:54.000Z</time>
      </trkpt>
      <trkpt lat="43.49788" lon="6.60196">
        <ele>74.2</ele>
        <time>2019-09-27T13:42:2.000Z</time>
      </trkpt>
      <trkpt lat="43.4978" lon="6.60203">
        <ele>74.2</ele>
        <time>2019-09-27T13:42:10.000Z</time>
      </trkpt>
      <trkpt lat="43.49772" lon="6.60212">
        <ele>74.2</ele>
        <time>2019-09-27T13:42:18.000Z</time>
      </trkpt>
      <trkpt lat="43.49766" lon="6.60223">
        <ele>74.6</ele>
        <time>2019-09-27T13:42:27.000Z</time>
      </trkpt>
      <trkpt lat="43.49764" lon="6.60236">
        <ele>74.9</ele>
        <time>2019-09-27T13:42:35.000Z</time>
      </trkpt>
      <trkpt lat="43.49762" lon="6.6025">
        <ele>75.1</ele>
        <time>2019-09-27T13:42:45.000Z</time>
      </trkpt>
      <trkpt lat="43.49761" lon="6.60263">
        <ele>75.1</ele>
        <time>2019-09-27T13:42:55.000Z</time>
      </trkpt>
      <trkpt lat="43.4976" lon="6.60277">
        <ele>75.1</ele>
        <time>2019-09-27T13:43:2.000Z</time>
      </trkpt>
      <trkpt lat="43.49758" lon="6.60291">
        <ele>75.3</ele>
        <time>2019-09-27T13:43:10.000Z</time>
      </trkpt>
      <trkpt lat="43.49757" lon="6.60304">
        <ele>75.5</ele>
        <time>2019-09-27T13:43:18.000Z</time>
      </trkpt>
      <trkpt lat="43.49755" lon="6.60316">
        <ele>75.7</ele>
        <time>2019-09-27T13:43:26.000Z</time>
      </trkpt>
      <trkpt lat="43.49752" lon="6.60328">
        <ele>76.1</ele>
        <time>2019-09-27T13:43:34.000Z</time>
      </trkpt>
      <trkpt lat="43.49753" lon="6.60341">
        <ele>76.9</ele>
        <time>2019-09-27T13:45:18.000Z</time>
      </trkpt>
      <trkpt lat="43.49754" lon="6.60354">
        <ele>77.1</ele>
        <time>2019-09-27T13:45:28.000Z</time>
      </trkpt>
      <trkpt lat="43.49758" lon="6.60367">
        <ele>76.9</ele>
        <time>2019-09-27T13:45:36.000Z</time>
      </trkpt>
      <trkpt lat="43.49765" lon="6.60377">
        <ele>77.1</ele>
        <time>2019-09-27T13:45:45.000Z</time>
      </trkpt>
      <trkpt lat="43.49773" lon="6.60385">
        <ele>77.4</ele>
        <time>2019-09-27T13:45:54.000Z</time>
      </trkpt>
      <trkpt lat="43.49779" lon="6.60395">
        <ele>77.9</ele>
        <time>2019-09-27T13:46:5.000Z</time>
      </trkpt>
      <trkpt lat="43.49786" lon="6.60404">
        <ele>78.2</ele>
        <time>2019-09-27T13:46:13.000Z</time>
      </trkpt>
      <trkpt lat="43.49794" lon="6.60413">
        <ele>78.1</ele>
        <time>2019-09-27T13:46:22.000Z</time>
      </trkpt>
      <trkpt lat="43.49801" lon="6.60424">
        <ele>78.5</ele>
        <time>2019-09-27T13:46:30.000Z</time>
      </trkpt>
      <trkpt lat="43.49805" lon="6.60436">
        <ele>78.8</ele>
        <time>2019-09-27T13:46:39.000Z</time>
      </trkpt>
      <trkpt lat="43.49812" lon="6.60445">
        <ele>78.9</ele>
        <time>2019-09-27T13:46:46.000Z</time>
      </trkpt>
      <trkpt lat="43.49819" lon="6.60455">
        <ele>79.1</ele>
        <time>2019-09-27T13:46:55.000Z</time>
      </trkpt>
      <trkpt lat="43.49826" lon="6.60464">
        <ele>79.3</ele>
        <time>2019-09-27T13:47:3.000Z</time>
      </trkpt>
      <trkpt lat="43.49832" lon="6.60474">
        <ele>78.8</ele>
        <time>2019-09-27T13:47:11.000Z</time>
      </trkpt>
      <trkpt lat="43.49839" lon="6.60484">
        <ele>78.5</ele>
        <time>2019-09-27T13:47:19.000Z</time>
      </trkpt>
      <trkpt lat="43.49846" lon="6.60494">
        <ele>78.3</ele>
        <time>2019-09-27T13:47:27.000Z</time>
      </trkpt>
      <trkpt lat="43.4985" lon="6.60505">
        <ele>77.9</ele>
        <time>2019-09-27T13:47:35.000Z</time>
      </trkpt>
      <trkpt lat="43.49855" lon="6.60517">
        <ele>77.6</ele>
        <time>2019-09-27T13:47:44.000Z</time>
      </trkpt>
      <trkpt lat="43.49859" lon="6.60529">
        <ele>77.1</ele>
        <time>2019-09-27T13:47:52.000Z</time>
      </trkpt>
      <trkpt lat="43.49862" lon="6.60541">
        <ele>77.3</ele>
        <time>2019-09-27T13:48:0.000Z</time>
      </trkpt>
      <trkpt lat="43.49865" lon="6.60554">
        <ele>77.1</ele>
        <time>2019-09-27T13:48:8.000Z</time>
      </trkpt>
      <trkpt lat="43.49866" lon="6.60566">
        <ele>77.1</ele>
        <time>2019-09-27T13:48:15.000Z</time>
      </trkpt>
      <trkpt lat="43.49868" lon="6.60579">
        <ele>77</ele>
        <time>2019-09-27T13:48:22.000Z</time>
      </trkpt>
      <trkpt lat="43.49871" lon="6.60591">
        <ele>77.3</ele>
        <time>2019-09-27T13:48:30.000Z</time>
      </trkpt>
      <trkpt lat="43.49873" lon="6.60604">
        <ele>77</ele>
        <time>2019-09-27T13:48:40.000Z</time>
      </trkpt>
      <trkpt lat="43.49875" lon="6.60617">
        <ele>77.2</ele>
        <time>2019-09-27T13:48:48.000Z</time>
      </trkpt>
      <trkpt lat="43.4988" lon="6.60628">
        <ele>77.1</ele>
        <time>2019-09-27T13:48:57.000Z</time>
      </trkpt>
      <trkpt lat="43.49885" lon="6.60639">
        <ele>77</ele>
        <time>2019-09-27T13:49:6.000Z</time>
      </trkpt>
      <trkpt lat="43.49888" lon="6.6065">
        <ele>76.8</ele>
        <time>2019-09-27T13:49:17.000Z</time>
      </trkpt>
      <trkpt lat="43.49897" lon="6.60656">
        <ele>76.2</ele>
        <time>2019-09-27T13:49:34.000Z</time>
      </trkpt>
      <trkpt lat="43.49905" lon="6.60663">
        <ele>76</ele>
        <time>2019-09-27T13:49:47.000Z</time>
      </trkpt>
      <trkpt lat="43.49912" lon="6.6067">
        <ele>75.5</ele>
        <time>2019-09-27T13:49:55.000Z</time>
      </trkpt>
      <trkpt lat="43.4992" lon="6.60678">
        <ele>75.5</ele>
        <time>2019-09-27T13:50:1.000Z</time>
      </trkpt>
      <trkpt lat="43.49929" lon="6.60685">
        <ele>74.9</ele>
        <time>2019-09-27T13:50:9.000Z</time>
      </trkpt>
      <trkpt lat="43.49937" lon="6.60692">
        <ele>74.4</ele>
        <time>2019-09-27T13:50:16.000Z</time>
      </trkpt>
      <trkpt lat="43.49945" lon="6.60698">
        <ele>73.9</ele>
        <time>2019-09-27T13:50:23.000Z</time>
      </trkpt>
      <trkpt lat="43.49953" lon="6.60706">
        <ele>73.5</ele>
        <time>2019-09-27T13:50:31.000Z</time>
      </trkpt>
      <trkpt lat="43.4996" lon="6.60713">
        <ele>73.1</ele>
        <time>2019-09-27T13:50:38.000Z</time>
      </trkpt>
      <trkpt lat="43.49968" lon="6.60722">
        <ele>71.9</ele>
        <time>2019-09-27T13:50:46.000Z</time>
      </trkpt>
      <trkpt lat="43.49974" lon="6.60732">
        <ele>71</ele>
        <time>2019-09-27T13:50:54.000Z</time>
      </trkpt>
      <trkpt lat="43.4998" lon="6.60742">
        <ele>70.8</ele>
        <time>2019-09-27T13:51:2.000Z</time>
      </trkpt>
      <trkpt lat="43.49986" lon="6.60751">
        <ele>70.3</ele>
        <time>2019-09-27T13:51:10.000Z</time>
      </trkpt>
      <trkpt lat="43.49993" lon="6.6076">
        <ele>70</ele>
        <time>2019-09-27T13:51:18.000Z</time>
      </trkpt>
      <trkpt lat="43.50001" lon="6.60768">
        <ele>69.7</ele>
        <time>2019-09-27T13:51:26.000Z</time>
      </trkpt>
      <trkpt lat="43.50009" lon="6.60776">
        <ele>69.5</ele>
        <time>2019-09-27T13:51:34.000Z</time>
      </trkpt>
      <trkpt lat="43.50016" lon="6.60784">
        <ele>69</ele>
        <time>2019-09-27T13:51:43.000Z</time>
      </trkpt>
      <trkpt lat="43.50023" lon="6.60793">
        <ele>68.7</ele>
        <time>2019-09-27T13:51:51.000Z</time>
      </trkpt>
      <trkpt lat="43.5003" lon="6.60801">
        <ele>68.3</ele>
        <time>2019-09-27T13:51:59.000Z</time>
      </trkpt>
      <trkpt lat="43.50037" lon="6.60809">
        <ele>68.2</ele>
        <time>2019-09-27T13:52:8.000Z</time>
      </trkpt>
      <trkpt lat="43.50044" lon="6.60818">
        <ele>68.1</ele>
        <time>2019-09-27T13:52:16.000Z</time>
      </trkpt>
      <trkpt lat="43.5005" lon="6.60827">
        <ele>67.7</ele>
        <time>2019-09-27T13:52:24.000Z</time>
      </trkpt>
      <trkpt lat="43.50058" lon="6.60835">
        <ele>67.5</ele>
        <time>2019-09-27T13:52:33.000Z</time>
      </trkpt>
      <trkpt lat="43.50065" lon="6.60843">
        <ele>67.4</ele>
        <time>2019-09-27T13:52:41.000Z</time>
      </trkpt>
      <trkpt lat="43.50072" lon="6.60852">
        <ele>67.3</ele>
        <time>2019-09-27T13:52:50.000Z</time>
      </trkpt>
      <trkpt lat="43.50079" lon="6.6086">
        <ele>67.6</ele>
        <time>2019-09-27T13:52:58.000Z</time>
      </trkpt>
      <trkpt lat="43.50086" lon="6.60868">
        <ele>67.5</ele>
        <time>2019-09-27T13:53:6.000Z</time>
      </trkpt>
      <trkpt lat="43.50093" lon="6.60876">
        <ele>67.2</ele>
        <time>2019-09-27T13:53:14.000Z</time>
      </trkpt>
      <trkpt lat="43.501" lon="6.60886">
        <ele>66.6</ele>
        <time>2019-09-27T13:53:23.000Z</time>
      </trkpt>
      <trkpt lat="43.50105" lon="6.60896">
        <ele>66</ele>
        <time>2019-09-27T13:53:32.000Z</time>
      </trkpt>
      <trkpt lat="43.50111" lon="6.60908">
        <ele>65.4</ele>
        <time>2019-09-27T13:53:42.000Z</time>
      </trkpt>
      <trkpt lat="43.50116" lon="6.60919">
        <ele>65.1</ele>
        <time>2019-09-27T13:53:50.000Z</time>
      </trkpt>
      <trkpt lat="43.50122" lon="6.6093">
        <ele>64.9</ele>
        <time>2019-09-27T13:53:59.000Z</time>
      </trkpt>
      <trkpt lat="43.50129" lon="6.60938">
        <ele>65</ele>
        <time>2019-09-27T13:54:7.000Z</time>
      </trkpt>
      <trkpt lat="43.50138" lon="6.60945">
        <ele>65.2</ele>
        <time>2019-09-27T13:54:16.000Z</time>
      </trkpt>
      <trkpt lat="43.50146" lon="6.60951">
        <ele>65.5</ele>
        <time>2019-09-27T13:54:25.000Z</time>
      </trkpt>
      <trkpt lat="43.50153" lon="6.60959">
        <ele>65.3</ele>
        <time>2019-09-27T13:54:35.000Z</time>
      </trkpt>
      <trkpt lat="43.50162" lon="6.60968">
        <ele>65.6</ele>
        <time>2019-09-27T13:54:44.000Z</time>
      </trkpt>
      <trkpt lat="43.50169" lon="6.60975">
        <ele>65.9</ele>
        <time>2019-09-27T13:54:53.000Z</time>
      </trkpt>
      <trkpt lat="43.50178" lon="6.60981">
        <ele>66.1</ele>
        <time>2019-09-27T13:55:1.000Z</time>
      </trkpt>
      <trkpt lat="43.50186" lon="6.60989">
        <ele>66.6</ele>
        <time>2019-09-27T13:55:10.000Z</time>
      </trkpt>
      <trkpt lat="43.50194" lon="6.60997">
        <ele>67.2</ele>
        <time>2019-09-27T13:55:19.000Z</time>
      </trkpt>
      <trkpt lat="43.50202" lon="6.61005">
        <ele>67.9</ele>
        <time>2019-09-27T13:55:28.000Z</time>
      </trkpt>
      <trkpt lat="43.50209" lon="6.61014">
        <ele>68.5</ele>
        <time>2019-09-27T13:55:37.000Z</time>
      </trkpt>
      <trkpt lat="43.50218" lon="6.61022">
        <ele>68.9</ele>
        <time>2019-09-27T13:55:47.000Z</time>
      </trkpt>
      <trkpt lat="43.50225" lon="6.6103">
        <ele>69.3</ele>
        <time>2019-09-27T13:55:56.000Z</time>
      </trkpt>
      <trkpt lat="43.50233" lon="6.61036">
        <ele>69.9</ele>
        <time>2019-09-27T13:56:4.000Z</time>
      </trkpt>
      <trkpt lat="43.5024" lon="6.61045">
        <ele>70.7</ele>
        <time>2019-09-27T13:56:12.000Z</time>
      </trkpt>
      <trkpt lat="43.50248" lon="6.61053">
        <ele>71.1</ele>
        <time>2019-09-27T13:56:20.000Z</time>
      </trkpt>
      <trkpt lat="43.50254" lon="6.61062">
        <ele>71.7</ele>
        <time>2019-09-27T13:56:29.000Z</time>
      </trkpt>
      <trkpt lat="43.50262" lon="6.6107">
        <ele>72.7</ele>
        <time>2019-09-27T13:56:37.000Z</time>
      </trkpt>
      <trkpt lat="43.5027" lon="6.61076">
        <ele>73.1</ele>
        <time>2019-09-27T13:56:45.000Z</time>
      </trkpt>
      <trkpt lat="43.50278" lon="6.61085">
        <ele>73.7</ele>
        <time>2019-09-27T13:56:53.000Z</time>
      </trkpt>
      <trkpt lat="43.50282" lon="6.61095">
        <ele>74.2</ele>
        <time>2019-09-27T13:58:48.000Z</time>
      </trkpt>
      <trkpt lat="43.50286" lon="6.61084">
        <ele>74.2</ele>
        <time>2019-09-27T14:03:33.000Z</time>
      </trkpt>
      <trkpt lat="43.50292" lon="6.61074">
        <ele>75</ele>
        <time>2019-09-27T14:03:44.000Z</time>
      </trkpt>
      <trkpt lat="43.50298" lon="6.61065">
        <ele>75.2</ele>
        <time>2019-09-27T14:03:54.000Z</time>
      </trkpt>
      <trkpt lat="43.50305" lon="6.61055">
        <ele>75.1</ele>
        <time>2019-09-27T14:04:2.000Z</time>
      </trkpt>
      <trkpt lat="43.5031" lon="6.61044">
        <ele>75.1</ele>
        <time>2019-09-27T14:04:10.000Z</time>
      </trkpt>
      <trkpt lat="43.50313" lon="6.61032">
        <ele>74.5</ele>
        <time>2019-09-27T14:04:18.000Z</time>
      </trkpt>
      <trkpt lat="43.50316" lon="6.61021">
        <ele>73.9</ele>
        <time>2019-09-27T14:04:26.000Z</time>
      </trkpt>
      <trkpt lat="43.5032" lon="6.61008">
        <ele>73.6</ele>
        <time>2019-09-27T14:04:34.000Z</time>
      </trkpt>
      <trkpt lat="43.50324" lon="6.60997">
        <ele>73.2</ele>
        <time>2019-09-27T14:04:42.000Z</time>
      </trkpt>
      <trkpt lat="43.50329" lon="6.60985">
        <ele>72.6</ele>
        <time>2019-09-27T14:04:50.000Z</time>
      </trkpt>
      <trkpt lat="43.50334" lon="6.60975">
        <ele>72.6</ele>
        <time>2019-09-27T14:04:58.000Z</time>
      </trkpt>
      <trkpt lat="43.5034" lon="6.60966">
        <ele>72.3</ele>
        <time>2019-09-27T14:05:6.000Z</time>
      </trkpt>
      <trkpt lat="43.50347" lon="6.60956">
        <ele>72.3</ele>
        <time>2019-09-27T14:05:14.000Z</time>
      </trkpt>
      <trkpt lat="43.50353" lon="6.60946">
        <ele>72.2</ele>
        <time>2019-09-27T14:05:22.000Z</time>
      </trkpt>
      <trkpt lat="43.50354" lon="6.60933">
        <ele>71.9</ele>
        <time>2019-09-27T14:05:30.000Z</time>
      </trkpt>
      <trkpt lat="43.50356" lon="6.6092">
        <ele>71.6</ele>
        <time>2019-09-27T14:05:39.000Z</time>
      </trkpt>
      <trkpt lat="43.50358" lon="6.60907">
        <ele>71.7</ele>
        <time>2019-09-27T14:05:48.000Z</time>
      </trkpt>
      <trkpt lat="43.50357" lon="6.60894">
        <ele>70.5</ele>
        <time>2019-09-27T14:06:40.000Z</time>
      </trkpt>
      <trkpt lat="43.50359" lon="6.60881">
        <ele>72.4</ele>
        <time>2019-09-27T14:06:51.000Z</time>
      </trkpt>
      <trkpt lat="43.5036" lon="6.60868">
        <ele>72.8</ele>
        <time>2019-09-27T14:07:1.000Z</time>
      </trkpt>
      <trkpt lat="43.5036" lon="6.60855">
        <ele>72.9</ele>
        <time>2019-09-27T14:07:10.000Z</time>
      </trkpt>
      <trkpt lat="43.50359" lon="6.60841">
        <ele>73.2</ele>
        <time>2019-09-27T14:07:19.000Z</time>
      </trkpt>
      <trkpt lat="43.50359" lon="6.60828">
        <ele>72.9</ele>
        <time>2019-09-27T14:07:27.000Z</time>
      </trkpt>
      <trkpt lat="43.50362" lon="6.60815">
        <ele>73.6</ele>
        <time>2019-09-27T14:07:36.000Z</time>
      </trkpt>
      <trkpt lat="43.50366" lon="6.60804">
        <ele>74</ele>
        <time>2019-09-27T14:07:45.000Z</time>
      </trkpt>
      <trkpt lat="43.50369" lon="6.60792">
        <ele>74.2</ele>
        <time>2019-09-27T14:07:53.000Z</time>
      </trkpt>
      <trkpt lat="43.5037" lon="6.60779">
        <ele>74.8</ele>
        <time>2019-09-27T14:08:1.000Z</time>
      </trkpt>
      <trkpt lat="43.50372" lon="6.60767">
        <ele>75.1</ele>
        <time>2019-09-27T14:08:9.000Z</time>
      </trkpt>
      <trkpt lat="43.50373" lon="6.60754">
        <ele>75.2</ele>
        <time>2019-09-27T14:08:17.000Z</time>
      </trkpt>
      <trkpt lat="43.50373" lon="6.60741">
        <ele>75.3</ele>
        <time>2019-09-27T14:08:26.000Z</time>
      </trkpt>
      <trkpt lat="43.50373" lon="6.60728">
        <ele>75.6</ele>
        <time>2019-09-27T14:08:35.000Z</time>
      </trkpt>
      <trkpt lat="43.50372" lon="6.60716">
        <ele>75.6</ele>
        <time>2019-09-27T14:08:44.000Z</time>
      </trkpt>
      <trkpt lat="43.5037" lon="6.60703">
        <ele>75.9</ele>
        <time>2019-09-27T14:08:53.000Z</time>
      </trkpt>
      <trkpt lat="43.5037" lon="6.60689">
        <ele>76.3</ele>
        <time>2019-09-27T14:09:2.000Z</time>
      </trkpt>
      <trkpt lat="43.50373" lon="6.60677">
        <ele>76.8</ele>
        <time>2019-09-27T14:09:10.000Z</time>
      </trkpt>
      <trkpt lat="43.50374" lon="6.60664">
        <ele>77</ele>
        <time>2019-09-27T14:09:18.000Z</time>
      </trkpt>
      <trkpt lat="43.50376" lon="6.60651">
        <ele>77.6</ele>
        <time>2019-09-27T14:09:27.000Z</time>
      </trkpt>
      <trkpt lat="43.50378" lon="6.60638">
        <ele>77.9</ele>
        <time>2019-09-27T14:09:36.000Z</time>
      </trkpt>
      <trkpt lat="43.50378" lon="6.60625">
        <ele>78.3</ele>
        <time>2019-09-27T14:09:45.000Z</time>
      </trkpt>
      <trkpt lat="43.50375" lon="6.60612">
        <ele>78.9</ele>
        <time>2019-09-27T14:09:53.000Z</time>
      </trkpt>
      <trkpt lat="43.5037" lon="6.60601">
        <ele>79.5</ele>
        <time>2019-09-27T14:10:2.000Z</time>
      </trkpt>
      <trkpt lat="43.50369" lon="6.60587">
        <ele>80</ele>
        <time>2019-09-27T14:10:12.000Z</time>
      </trkpt>
      <trkpt lat="43.50371" lon="6.60575">
        <ele>80.4</ele>
        <time>2019-09-27T14:10:21.000Z</time>
      </trkpt>
      <trkpt lat="43.50377" lon="6.60565">
        <ele>80.8</ele>
        <time>2019-09-27T14:10:31.000Z</time>
      </trkpt>
      <trkpt lat="43.50381" lon="6.60553">
        <ele>81</ele>
        <time>2019-09-27T14:10:39.000Z</time>
      </trkpt>
      <trkpt lat="43.50384" lon="6.6054">
        <ele>81</ele>
        <time>2019-09-27T14:10:48.000Z</time>
      </trkpt>
      <trkpt lat="43.50385" lon="6.60527">
        <ele>81.1</ele>
        <time>2019-09-27T14:10:57.000Z</time>
      </trkpt>
      <trkpt lat="43.5039" lon="6.60516">
        <ele>81.4</ele>
        <time>2019-09-27T14:11:6.000Z</time>
      </trkpt>
      <trkpt lat="43.50397" lon="6.60508">
        <ele>81.4</ele>
        <time>2019-09-27T14:11:14.000Z</time>
      </trkpt>
      <trkpt lat="43.50404" lon="6.60498">
        <ele>81.6</ele>
        <time>2019-09-27T14:11:22.000Z</time>
      </trkpt>
      <trkpt lat="43.50409" lon="6.60487">
        <ele>81.9</ele>
        <time>2019-09-27T14:11:30.000Z</time>
      </trkpt>
      <trkpt lat="43.50413" lon="6.60474">
        <ele>81.8</ele>
        <time>2019-09-27T14:11:38.000Z</time>
      </trkpt>
      <trkpt lat="43.50418" lon="6.60463">
        <ele>82.2</ele>
        <time>2019-09-27T14:11:45.000Z</time>
      </trkpt>
      <trkpt lat="43.50425" lon="6.60455">
        <ele>82.7</ele>
        <time>2019-09-27T14:11:54.000Z</time>
      </trkpt>
      <trkpt lat="43.50433" lon="6.60447">
        <ele>83.1</ele>
        <time>2019-09-27T14:12:4.000Z</time>
      </trkpt>
      <trkpt lat="43.5044" lon="6.60438">
        <ele>83.1</ele>
        <time>2019-09-27T14:12:13.000Z</time>
      </trkpt>
      <trkpt lat="43.50447" lon="6.60429">
        <ele>83.1</ele>
        <time>2019-09-27T14:12:20.000Z</time>
      </trkpt>
      <trkpt lat="43.50453" lon="6.6042">
        <ele>83.2</ele>
        <time>2019-09-27T14:12:27.000Z</time>
      </trkpt>
      <trkpt lat="43.5046" lon="6.60411">
        <ele>83.7</ele>
        <time>2019-09-27T14:12:36.000Z</time>
      </trkpt>
      <trkpt lat="43.50468" lon="6.60403">
        <ele>83.7</ele>
        <time>2019-09-27T14:12:44.000Z</time>
      </trkpt>
      <trkpt lat="43.50473" lon="6.60392">
        <ele>83.9</ele>
        <time>2019-09-27T14:12:52.000Z</time>
      </trkpt>
      <trkpt lat="43.50477" lon="6.6038">
        <ele>84</ele>
        <time>2019-09-27T14:13:0.000Z</time>
      </trkpt>
      <trkpt lat="43.5048" lon="6.60367">
        <ele>84.4</ele>
        <time>2019-09-27T14:13:8.000Z</time>
      </trkpt>
      <trkpt lat="43.50483" lon="6.60355">
        <ele>85</ele>
        <time>2019-09-27T14:13:16.000Z</time>
      </trkpt>
      <trkpt lat="43.50488" lon="6.60344">
        <ele>85.5</ele>
        <time>2019-09-27T14:13:24.000Z</time>
      </trkpt>
      <trkpt lat="43.50492" lon="6.60332">
        <ele>85.4</ele>
        <time>2019-09-27T14:13:32.000Z</time>
      </trkpt>
      <trkpt lat="43.50498" lon="6.60321">
        <ele>86</ele>
        <time>2019-09-27T14:13:41.000Z</time>
      </trkpt>
      <trkpt lat="43.50504" lon="6.60309">
        <ele>86</ele>
        <time>2019-09-27T14:13:50.000Z</time>
      </trkpt>
      <trkpt lat="43.50509" lon="6.60299">
        <ele>86.4</ele>
        <time>2019-09-27T14:13:58.000Z</time>
      </trkpt>
      <trkpt lat="43.50515" lon="6.60289">
        <ele>86.2</ele>
        <time>2019-09-27T14:14:6.000Z</time>
      </trkpt>
      <trkpt lat="43.50521" lon="6.60278">
        <ele>85.7</ele>
        <time>2019-09-27T14:14:14.000Z</time>
      </trkpt>
      <trkpt lat="43.50526" lon="6.60269">
        <ele>85.8</ele>
        <time>2019-09-27T14:14:23.000Z</time>
      </trkpt>
      <trkpt lat="43.50531" lon="6.60258">
        <ele>85.8</ele>
        <time>2019-09-27T14:14:31.000Z</time>
      </trkpt>
      <trkpt lat="43.50537" lon="6.60248">
        <ele>85.8</ele>
        <time>2019-09-27T14:14:38.000Z</time>
      </trkpt>
      <trkpt lat="43.50541" lon="6.60237">
        <ele>86.1</ele>
        <time>2019-09-27T14:14:45.000Z</time>
      </trkpt>
      <trkpt lat="43.50545" lon="6.60225">
        <ele>86.3</ele>
        <time>2019-09-27T14:14:53.000Z</time>
      </trkpt>
      <trkpt lat="43.50547" lon="6.60212">
        <ele>86.9</ele>
        <time>2019-09-27T14:15:2.000Z</time>
      </trkpt>
      <trkpt lat="43.50551" lon="6.60201">
        <ele>87.6</ele>
        <time>2019-09-27T14:15:10.000Z</time>
      </trkpt>
      <trkpt lat="43.50558" lon="6.60191">
        <ele>88</ele>
        <time>2019-09-27T14:15:20.000Z</time>
      </trkpt>
      <trkpt lat="43.50563" lon="6.60179">
        <ele>87.7</ele>
        <time>2019-09-27T14:15:29.000Z</time>
      </trkpt>
      <trkpt lat="43.50568" lon="6.60167">
        <ele>88</ele>
        <time>2019-09-27T14:15:38.000Z</time>
      </trkpt>
      <trkpt lat="43.50575" lon="6.60157">
        <ele>88.3</ele>
        <time>2019-09-27T14:15:47.000Z</time>
      </trkpt>
      <trkpt lat="43.50578" lon="6.60145">
        <ele>88.5</ele>
        <time>2019-09-27T14:15:59.000Z</time>
      </trkpt>
      <trkpt lat="43.50585" lon="6.60136">
        <ele>89.2</ele>
        <time>2019-09-27T14:18:43.000Z</time>
      </trkpt>
      <trkpt lat="43.50593" lon="6.60129">
        <ele>89</ele>
        <time>2019-09-27T14:18:53.000Z</time>
      </trkpt>
      <trkpt lat="43.50599" lon="6.60118">
        <ele>88.4</ele>
        <time>2019-09-27T14:19:2.000Z</time>
      </trkpt>
      <trkpt lat="43.50607" lon="6.60108">
        <ele>88.2</ele>
        <time>2019-09-27T14:19:11.000Z</time>
      </trkpt>
      <trkpt lat="43.50612" lon="6.60099">
        <ele>87.7</ele>
        <time>2019-09-27T14:19:19.000Z</time>
      </trkpt>
      <trkpt lat="43.50619" lon="6.60089">
        <ele>87.1</ele>
        <time>2019-09-27T14:19:28.000Z</time>
      </trkpt>
      <trkpt lat="43.50625" lon="6.60079">
        <ele>86.2</ele>
        <time>2019-09-27T14:19:37.000Z</time>
      </trkpt>
      <trkpt lat="43.50632" lon="6.60069">
        <ele>85.8</ele>
        <time>2019-09-27T14:19:47.000Z</time>
      </trkpt>
      <trkpt lat="43.50638" lon="6.6006">
        <ele>85.1</ele>
        <time>2019-09-27T14:19:56.000Z</time>
      </trkpt>
      <trkpt lat="43.50643" lon="6.60049">
        <ele>84.2</ele>
        <time>2019-09-27T14:20:4.000Z</time>
      </trkpt>
      <trkpt lat="43.50641" lon="6.60036">
        <ele>83.7</ele>
        <time>2019-09-27T14:20:10.000Z</time>
      </trkpt>
      <trkpt lat="43.50634" lon="6.60026">
        <ele>83.1</ele>
        <time>2019-09-27T14:20:19.000Z</time>
      </trkpt>
      <trkpt lat="43.50626" lon="6.60018">
        <ele>82.5</ele>
        <time>2019-09-27T14:20:29.000Z</time>
      </trkpt>
      <trkpt lat="43.50619" lon="6.60009">
        <ele>81.5</ele>
        <time>2019-09-27T14:20:40.000Z</time>
      </trkpt>
      <trkpt lat="43.50612" lon="6.6">
        <ele>80.2</ele>
        <time>2019-09-27T14:20:49.000Z</time>
      </trkpt>
      <trkpt lat="43.50606" lon="6.59991">
        <ele>79.4</ele>
        <time>2019-09-27T14:20:57.000Z</time>
      </trkpt>
      <trkpt lat="43.50598" lon="6.59984">
        <ele>78.3</ele>
        <time>2019-09-27T14:21:5.000Z</time>
      </trkpt>
      <trkpt lat="43.50589" lon="6.59979">
        <ele>77.8</ele>
        <time>2019-09-27T14:21:15.000Z</time>
      </trkpt>
      <trkpt lat="43.50579" lon="6.59975">
        <ele>77</ele>
        <time>2019-09-27T14:21:25.000Z</time>
      </trkpt>
      <trkpt lat="43.5057" lon="6.59969">
        <ele>77.1</ele>
        <time>2019-09-27T14:21:35.000Z</time>
      </trkpt>
      <trkpt lat="43.50561" lon="6.59965">
        <ele>76.7</ele>
        <time>2019-09-27T14:21:43.000Z</time>
      </trkpt>
      <trkpt lat="43.50553" lon="6.59959">
        <ele>76.4</ele>
        <time>2019-09-27T14:21:51.000Z</time>
      </trkpt>
      <trkpt lat="43.50547" lon="6.59949">
        <ele>76.1</ele>
        <time>2019-09-27T14:21:59.000Z</time>
      </trkpt>
      <trkpt lat="43.50539" lon="6.59943">
        <ele>75.8</ele>
        <time>2019-09-27T14:22:8.000Z</time>
      </trkpt>
      <trkpt lat="43.50529" lon="6.59937">
        <ele>75.3</ele>
        <time>2019-09-27T14:22:15.000Z</time>
      </trkpt>
      <trkpt lat="43.50523" lon="6.59928">
        <ele>75.2</ele>
        <time>2019-09-27T14:22:24.000Z</time>
      </trkpt>
      <trkpt lat="43.50519" lon="6.59916">
        <ele>75.3</ele>
        <time>2019-09-27T14:22:34.000Z</time>
      </trkpt>
      <trkpt lat="43.50517" lon="6.59903">
        <ele>75.3</ele>
        <time>2019-09-27T14:22:43.000Z</time>
      </trkpt>
      <trkpt lat="43.50517" lon="6.59889">
        <ele>75</ele>
        <time>2019-09-27T14:22:53.000Z</time>
      </trkpt>
      <trkpt lat="43.50517" lon="6.59876">
        <ele>75.1</ele>
        <time>2019-09-27T14:23:2.000Z</time>
      </trkpt>
      <trkpt lat="43.50516" lon="6.59863">
        <ele>74.8</ele>
        <time>2019-09-27T14:23:10.000Z</time>
      </trkpt>
      <trkpt lat="43.50516" lon="6.5985">
        <ele>74.2</ele>
        <time>2019-09-27T14:23:19.000Z</time>
      </trkpt>
      <trkpt lat="43.50514" lon="6.59837">
        <ele>74.1</ele>
        <time>2019-09-27T14:23:28.000Z</time>
      </trkpt>
      <trkpt lat="43.50516" lon="6.59824">
        <ele>73.6</ele>
        <time>2019-09-27T14:23:38.000Z</time>
      </trkpt>
      <trkpt lat="43.5052" lon="6.59812">
        <ele>73.3</ele>
        <time>2019-09-27T14:23:46.000Z</time>
      </trkpt>
      <trkpt lat="43.50522" lon="6.59799">
        <ele>73</ele>
        <time>2019-09-27T14:23:52.000Z</time>
      </trkpt>
      <trkpt lat="43.50521" lon="6.59786">
        <ele>72.5</ele>
        <time>2019-09-27T14:24:0.000Z</time>
      </trkpt>
      <trkpt lat="43.50515" lon="6.59775">
        <ele>71.8</ele>
        <time>2019-09-27T14:24:8.000Z</time>
      </trkpt>
      <trkpt lat="43.50508" lon="6.59766">
        <ele>71.2</ele>
        <time>2019-09-27T14:24:16.000Z</time>
      </trkpt>
      <trkpt lat="43.50502" lon="6.59757">
        <ele>71</ele>
        <time>2019-09-27T14:24:25.000Z</time>
      </trkpt>
      <trkpt lat="43.50499" lon="6.59745">
        <ele>70.9</ele>
        <time>2019-09-27T14:24:33.000Z</time>
      </trkpt>
      <trkpt lat="43.50499" lon="6.59732">
        <ele>70.4</ele>
        <time>2019-09-27T14:24:42.000Z</time>
      </trkpt>
      <trkpt lat="43.50498" lon="6.59719">
        <ele>70.1</ele>
        <time>2019-09-27T14:24:50.000Z</time>
      </trkpt>
      <trkpt lat="43.50499" lon="6.59706">
        <ele>70.1</ele>
        <time>2019-09-27T14:24:58.000Z</time>
      </trkpt>
      <trkpt lat="43.50498" lon="6.59693">
        <ele>69.8</ele>
        <time>2019-09-27T14:25:6.000Z</time>
      </trkpt>
      <trkpt lat="43.50499" lon="6.59681">
        <ele>69.6</ele>
        <time>2019-09-27T14:25:14.000Z</time>
      </trkpt>
      <trkpt lat="43.505" lon="6.59668">
        <ele>69.7</ele>
        <time>2019-09-27T14:25:21.000Z</time>
      </trkpt>
      <trkpt lat="43.505" lon="6.59655">
        <ele>69.2</ele>
        <time>2019-09-27T14:25:30.000Z</time>
      </trkpt>
      <trkpt lat="43.505" lon="6.59642">
        <ele>69.2</ele>
        <time>2019-09-27T14:25:37.000Z</time>
      </trkpt>
      <trkpt lat="43.50497" lon="6.59631">
        <ele>68.8</ele>
        <time>2019-09-27T14:25:44.000Z</time>
      </trkpt>
      <trkpt lat="43.50491" lon="6.5962">
        <ele>67.8</ele>
        <time>2019-09-27T14:25:52.000Z</time>
      </trkpt>
      <trkpt lat="43.50484" lon="6.59612">
        <ele>67.5</ele>
        <time>2019-09-27T14:26:0.000Z</time>
      </trkpt>
      <trkpt lat="43.50476" lon="6.59603">
        <ele>67</ele>
        <time>2019-09-27T14:26:9.000Z</time>
      </trkpt>
      <trkpt lat="43.50469" lon="6.59596">
        <ele>66.7</ele>
        <time>2019-09-27T14:26:17.000Z</time>
      </trkpt>
      <trkpt lat="43.5046" lon="6.59592">
        <ele>66.4</ele>
        <time>2019-09-27T14:26:24.000Z</time>
      </trkpt>
      <trkpt lat="43.50451" lon="6.59585">
        <ele>65.9</ele>
        <time>2019-09-27T14:26:32.000Z</time>
      </trkpt>
      <trkpt lat="43.50444" lon="6.59576">
        <ele>65.3</ele>
        <time>2019-09-27T14:26:40.000Z</time>
      </trkpt>
      <trkpt lat="43.50438" lon="6.59566">
        <ele>64.6</ele>
        <time>2019-09-27T14:26:48.000Z</time>
      </trkpt>
      <trkpt lat="43.50431" lon="6.59556">
        <ele>63.9</ele>
        <time>2019-09-27T14:26:56.000Z</time>
      </trkpt>
      <trkpt lat="43.50426" lon="6.59545">
        <ele>63.7</ele>
        <time>2019-09-27T14:27:4.000Z</time>
      </trkpt>
      <trkpt lat="43.50426" lon="6.59532">
        <ele>62.9</ele>
        <time>2019-09-27T14:27:14.000Z</time>
      </trkpt>
      <trkpt lat="43.5043" lon="6.5952">
        <ele>62.7</ele>
        <time>2019-09-27T14:27:22.000Z</time>
      </trkpt>
      <trkpt lat="43.50435" lon="6.59509">
        <ele>62.5</ele>
        <time>2019-09-27T14:27:30.000Z</time>
      </trkpt>
      <trkpt lat="43.50442" lon="6.59501">
        <ele>61.9</ele>
        <time>2019-09-27T14:27:39.000Z</time>
      </trkpt>
      <trkpt lat="43.50447" lon="6.5949">
        <ele>61.6</ele>
        <time>2019-09-27T14:27:48.000Z</time>
      </trkpt>
      <trkpt lat="43.50451" lon="6.59478">
        <ele>60.6</ele>
        <time>2019-09-27T14:27:57.000Z</time>
      </trkpt>
      <trkpt lat="43.50451" lon="6.59465">
        <ele>58.7</ele>
        <time>2019-09-27T14:29:37.000Z</time>
      </trkpt>
      <trkpt lat="43.50446" lon="6.59454">
        <ele>58.4</ele>
        <time>2019-09-27T14:29:51.000Z</time>
      </trkpt>
      <trkpt lat="43.50441" lon="6.59443">
        <ele>58.2</ele>
        <time>2019-09-27T14:30:0.000Z</time>
      </trkpt>
      <trkpt lat="43.50436" lon="6.59432">
        <ele>58.6</ele>
        <time>2019-09-27T14:30:9.000Z</time>
      </trkpt>
      <trkpt lat="43.50433" lon="6.5942">
        <ele>59.7</ele>
        <time>2019-09-27T14:30:19.000Z</time>
      </trkpt>
      <trkpt lat="43.50431" lon="6.59408">
        <ele>60.7</ele>
        <time>2019-09-27T14:30:29.000Z</time>
      </trkpt>
      <trkpt lat="43.50425" lon="6.59398">
        <ele>61.6</ele>
        <time>2019-09-27T14:30:38.000Z</time>
      </trkpt>
      <trkpt lat="43.50423" lon="6.59386">
        <ele>62.8</ele>
        <time>2019-09-27T14:30:48.000Z</time>
      </trkpt>
      <trkpt lat="43.50422" lon="6.59372">
        <ele>63.9</ele>
        <time>2019-09-27T14:30:58.000Z</time>
      </trkpt>
      <trkpt lat="43.50419" lon="6.59359">
        <ele>64.9</ele>
        <time>2019-09-27T14:31:8.000Z</time>
      </trkpt>
      <trkpt lat="43.50415" lon="6.59348">
        <ele>65.5</ele>
        <time>2019-09-27T14:31:17.000Z</time>
      </trkpt>
      <trkpt lat="43.5041" lon="6.59337">
        <ele>66.2</ele>
        <time>2019-09-27T14:31:25.000Z</time>
      </trkpt>
      <trkpt lat="43.50405" lon="6.59326">
        <ele>66</ele>
        <time>2019-09-27T14:31:33.000Z</time>
      </trkpt>
      <trkpt lat="43.50403" lon="6.59314">
        <ele>65.9</ele>
        <time>2019-09-27T14:31:41.000Z</time>
      </trkpt>
      <trkpt lat="43.504" lon="6.59302">
        <ele>65.9</ele>
        <time>2019-09-27T14:31:50.000Z</time>
      </trkpt>
      <trkpt lat="43.50395" lon="6.59292">
        <ele>65.5</ele>
        <time>2019-09-27T14:31:59.000Z</time>
      </trkpt>
      <trkpt lat="43.5039" lon="6.5928">
        <ele>65</ele>
        <time>2019-09-27T14:32:8.000Z</time>
      </trkpt>
      <trkpt lat="43.50386" lon="6.59268">
        <ele>64.9</ele>
        <time>2019-09-27T14:32:17.000Z</time>
      </trkpt>
      <trkpt lat="43.50383" lon="6.59256">
        <ele>64.1</ele>
        <time>2019-09-27T14:32:26.000Z</time>
      </trkpt>
      <trkpt lat="43.50379" lon="6.59244">
        <ele>64</ele>
        <time>2019-09-27T14:32:35.000Z</time>
      </trkpt>
      <trkpt lat="43.50378" lon="6.59231">
        <ele>63.4</ele>
        <time>2019-09-27T14:32:45.000Z</time>
      </trkpt>
      <trkpt lat="43.50377" lon="6.59218">
        <ele>62.2</ele>
        <time>2019-09-27T14:32:57.000Z</time>
      </trkpt>
      <trkpt lat="43.50371" lon="6.59207">
        <ele>60.2</ele>
        <time>2019-09-27T14:33:10.000Z</time>
      </trkpt>
      <trkpt lat="43.5037" lon="6.59194">
        <ele>58.6</ele>
        <time>2019-09-27T14:33:25.000Z</time>
      </trkpt>
      <trkpt lat="43.50369" lon="6.59182">
        <ele>54.5</ele>
        <time>2019-09-27T14:36:25.000Z</time>
      </trkpt>
      <trkpt lat="43.50372" lon="6.5917">
        <ele>49.1</ele>
        <time>2019-09-27T14:41:9.000Z</time>
      </trkpt>
      <trkpt lat="43.50366" lon="6.5916">
        <ele>46.1</ele>
        <time>2019-09-27T14:41:22.000Z</time>
      </trkpt>
      <trkpt lat="43.50358" lon="6.59154">
        <ele>42.6</ele>
        <time>2019-09-27T14:41:45.000Z</time>
      </trkpt>
      <trkpt lat="43.50358" lon="6.59141">
        <ele>39</ele>
        <time>2019-09-27T14:42:12.000Z</time>
      </trkpt>
      <trkpt lat="43.50356" lon="6.59129">
        <ele>36.8</ele>
        <time>2019-09-27T14:42:48.000Z</time>
      </trkpt>
      <trkpt lat="43.50353" lon="6.59124">
        <ele>35.9</ele>
        <time>2019-09-27T14:43:33.000Z</time>
      </trkpt>
    </trkseg>
  </trk>
</gpx>